<?xml version="1.0" encoding="utf-8"?>
<gpx xmlns:xsi="http://www.w3.org/2001/XMLSchema-instance" xmlns:xsd="http://www.w3.org/2001/XMLSchema" version="1.1" creator="Shapelink.com" xmlns="http://www.topografix.com/GPX/1/1" xmlns:gpxtpx="http://www.garmin.com/xmlschemas/TrackPointExtension/v1">
  <metadata>
    <name>Cycling 36.69 km, 2020-08-09</name>
    <desc></desc>
    <author><name>Marian Moron</name></author> 
    <time>2020-08-09T09:56:32Z</time>
  </metadata>
  <trk>
    <name>Cycling 36.69 km, 2020-08-09</name>
    <trkseg>
      <trkpt lat="51.23001019114" lon="4.462454493144">
        <ele>0</ele>
        <time>2020-08-09T09:56:32Z</time>
      </trkpt>
      <trkpt lat="51.230257038095" lon="4.463264268503">
        <ele>0</ele>
        <time>2020-08-09T09:56:41Z</time>
      </trkpt>
      <trkpt lat="51.230485109594" lon="4.464098183734">
        <ele>0</ele>
        <time>2020-08-09T09:56:50Z</time>
      </trkpt>
      <trkpt lat="51.230720557165" lon="4.46497694213">
        <ele>0</ele>
        <time>2020-08-09T09:56:59Z</time>
      </trkpt>
      <trkpt lat="51.230736231318" lon="4.465078279301">
        <ele>0</ele>
        <time>2020-08-09T09:57:00Z</time>
      </trkpt>
      <trkpt lat="51.230755593507" lon="4.465996935541">
        <ele>0</ele>
        <time>2020-08-09T09:57:09Z</time>
      </trkpt>
      <trkpt lat="51.230725921581" lon="4.466868988417">
        <ele>0</ele>
        <time>2020-08-09T09:57:18Z</time>
      </trkpt>
      <trkpt lat="51.230707816677" lon="4.467371567141">
        <ele>0</ele>
        <time>2020-08-09T09:57:25Z</time>
      </trkpt>
      <trkpt lat="51.230760035914" lon="4.467374416987">
        <ele>0</ele>
        <time>2020-08-09T09:57:27Z</time>
      </trkpt>
      <trkpt lat="51.23128926908" lon="4.467228404289">
        <ele>0</ele>
        <time>2020-08-09T09:57:38Z</time>
      </trkpt>
      <trkpt lat="51.231800145885" lon="4.467257238025">
        <ele>0</ele>
        <time>2020-08-09T09:57:48Z</time>
      </trkpt>
      <trkpt lat="51.231897375925" lon="4.46717802907">
        <ele>0</ele>
        <time>2020-08-09T09:57:50Z</time>
      </trkpt>
      <trkpt lat="51.232052943989" lon="4.467067639447">
        <ele>0</ele>
        <time>2020-08-09T09:57:54Z</time>
      </trkpt>
      <trkpt lat="51.232117819895" lon="4.467243240252">
        <ele>0</ele>
        <time>2020-08-09T09:57:57Z</time>
      </trkpt>
      <trkpt lat="51.232173056616" lon="4.467444070576">
        <ele>0</ele>
        <time>2020-08-09T09:58:00Z</time>
      </trkpt>
      <trkpt lat="51.23250045363" lon="4.468157621723">
        <ele>0</ele>
        <time>2020-08-09T09:58:10Z</time>
      </trkpt>
      <trkpt lat="51.232813433776" lon="4.468895061285">
        <ele>0</ele>
        <time>2020-08-09T09:58:20Z</time>
      </trkpt>
      <trkpt lat="51.233131778338" lon="4.469604756758">
        <ele>1.6</ele>
        <time>2020-08-09T09:58:29Z</time>
      </trkpt>
      <trkpt lat="51.233462779569" lon="4.470291988739">
        <ele>1.2</ele>
        <time>2020-08-09T09:58:38Z</time>
      </trkpt>
      <trkpt lat="51.233812304799" lon="4.471032110509">
        <ele>0</ele>
        <time>2020-08-09T09:58:48Z</time>
      </trkpt>
      <trkpt lat="51.234139869451" lon="4.471747254217">
        <ele>0</ele>
        <time>2020-08-09T09:58:58Z</time>
      </trkpt>
      <trkpt lat="51.234447066086" lon="4.472462984658">
        <ele>0</ele>
        <time>2020-08-09T09:59:08Z</time>
      </trkpt>
      <trkpt lat="51.234574470966" lon="4.47281820958">
        <ele>0</ele>
        <time>2020-08-09T09:59:13Z</time>
      </trkpt>
      <trkpt lat="51.234887283474" lon="4.473591439855">
        <ele>0</ele>
        <time>2020-08-09T09:59:23Z</time>
      </trkpt>
      <trkpt lat="51.234989794111" lon="4.473676683778">
        <ele>0</ele>
        <time>2020-08-09T09:59:25Z</time>
      </trkpt>
      <trkpt lat="51.23507453512" lon="4.473787576315">
        <ele>0</ele>
        <time>2020-08-09T09:59:27Z</time>
      </trkpt>
      <trkpt lat="51.2352354676" lon="4.474606571764">
        <ele>7.8</ele>
        <time>2020-08-09T09:59:37Z</time>
      </trkpt>
      <trkpt lat="51.235310150329" lon="4.475111916515">
        <ele>14</ele>
        <time>2020-08-09T09:59:43Z</time>
      </trkpt>
      <trkpt lat="51.235435208277" lon="4.47594968742">
        <ele>22.4</ele>
        <time>2020-08-09T09:59:52Z</time>
      </trkpt>
      <trkpt lat="51.235572755256" lon="4.476814196586">
        <ele>27.2</ele>
        <time>2020-08-09T10:00:01Z</time>
      </trkpt>
      <trkpt lat="51.235843742083" lon="4.477668731291">
        <ele>10.6</ele>
        <time>2020-08-09T10:00:09Z</time>
      </trkpt>
      <trkpt lat="51.235995454473" lon="4.478513207716">
        <ele>1.6</ele>
        <time>2020-08-09T10:00:18Z</time>
      </trkpt>
      <trkpt lat="51.236044488588" lon="4.479367574783">
        <ele>0.8</ele>
        <time>2020-08-09T10:00:27Z</time>
      </trkpt>
      <trkpt lat="51.236051613203" lon="4.480253457794">
        <ele>0.8</ele>
        <time>2020-08-09T10:00:37Z</time>
      </trkpt>
      <trkpt lat="51.236096037273" lon="4.481166414342">
        <ele>8.6</ele>
        <time>2020-08-09T10:00:48Z</time>
      </trkpt>
      <trkpt lat="51.236081452767" lon="4.482046597661">
        <ele>17.6</ele>
        <time>2020-08-09T10:00:58Z</time>
      </trkpt>
      <trkpt lat="51.23605102647" lon="4.482979754588">
        <ele>21.6</ele>
        <time>2020-08-09T10:01:09Z</time>
      </trkpt>
      <trkpt lat="51.236062844949" lon="4.483872510757">
        <ele>14</ele>
        <time>2020-08-09T10:01:18Z</time>
      </trkpt>
      <trkpt lat="51.236091091952" lon="4.484751101515">
        <ele>7.8</ele>
        <time>2020-08-09T10:01:26Z</time>
      </trkpt>
      <trkpt lat="51.236096037273" lon="4.485683923166">
        <ele>5.2</ele>
        <time>2020-08-09T10:01:35Z</time>
      </trkpt>
      <trkpt lat="51.236080949853" lon="4.486628311839">
        <ele>2.2</ele>
        <time>2020-08-09T10:01:45Z</time>
      </trkpt>
      <trkpt lat="51.236087487735" lon="4.487500197077">
        <ele>0.4</ele>
        <time>2020-08-09T10:01:54Z</time>
      </trkpt>
      <trkpt lat="51.236088409744" lon="4.48836663408">
        <ele>0</ele>
        <time>2020-08-09T10:02:03Z</time>
      </trkpt>
      <trkpt lat="51.236110873236" lon="4.489278500981">
        <ele>0</ele>
        <time>2020-08-09T10:02:13Z</time>
      </trkpt>
      <trkpt lat="51.236090086124" lon="4.489856349167">
        <ele>2.4</ele>
        <time>2020-08-09T10:02:21Z</time>
      </trkpt>
      <trkpt lat="51.23601582249" lon="4.490616419859">
        <ele>4.2</ele>
        <time>2020-08-09T10:03:37Z</time>
      </trkpt>
      <trkpt lat="51.235812645234" lon="4.49145704061">
        <ele>3.6</ele>
        <time>2020-08-09T10:03:47Z</time>
      </trkpt>
      <trkpt lat="51.235738800695" lon="4.491711934189">
        <ele>3.8</ele>
        <time>2020-08-09T10:03:50Z</time>
      </trkpt>
      <trkpt lat="51.235388101999" lon="4.492937451788">
        <ele>5.4</ele>
        <time>2020-08-09T10:04:29Z</time>
      </trkpt>
      <trkpt lat="51.235140500673" lon="4.493738845247">
        <ele>6.2</ele>
        <time>2020-08-09T10:04:38Z</time>
      </trkpt>
      <trkpt lat="51.23490270617" lon="4.494550548443">
        <ele>4.4</ele>
        <time>2020-08-09T10:04:47Z</time>
      </trkpt>
      <trkpt lat="51.234693410127" lon="4.495391336832">
        <ele>8.8</ele>
        <time>2020-08-09T10:04:56Z</time>
      </trkpt>
      <trkpt lat="51.234495932563" lon="4.496246206813">
        <ele>12</ele>
        <time>2020-08-09T10:05:05Z</time>
      </trkpt>
      <trkpt lat="51.234263502476" lon="4.497112811454">
        <ele>12.8</ele>
        <time>2020-08-09T10:05:14Z</time>
      </trkpt>
      <trkpt lat="51.233986145405" lon="4.497929040876">
        <ele>10.4</ele>
        <time>2020-08-09T10:05:23Z</time>
      </trkpt>
      <trkpt lat="51.23368313972" lon="4.498667234809">
        <ele>13.2</ele>
        <time>2020-08-09T10:05:32Z</time>
      </trkpt>
      <trkpt lat="51.233308049695" lon="4.499351533125">
        <ele>10.4</ele>
        <time>2020-08-09T10:05:42Z</time>
      </trkpt>
      <trkpt lat="51.232905718495" lon="4.500019570555">
        <ele>8.8</ele>
        <time>2020-08-09T10:05:52Z</time>
      </trkpt>
      <trkpt lat="51.232544123329" lon="4.50066371957">
        <ele>14.8</ele>
        <time>2020-08-09T10:06:01Z</time>
      </trkpt>
      <trkpt lat="51.232175655005" lon="4.501324967661">
        <ele>18.6</ele>
        <time>2020-08-09T10:06:10Z</time>
      </trkpt>
      <trkpt lat="51.231819088979" lon="4.501947239917">
        <ele>12.4</ele>
        <time>2020-08-09T10:06:19Z</time>
      </trkpt>
      <trkpt lat="51.231719176731" lon="4.502029466356">
        <ele>10.4</ele>
        <time>2020-08-09T10:06:21Z</time>
      </trkpt>
      <trkpt lat="51.231640805966" lon="4.502124098007">
        <ele>8</ele>
        <time>2020-08-09T10:06:24Z</time>
      </trkpt>
      <trkpt lat="51.231554891491" lon="4.503078461141">
        <ele>7.4</ele>
        <time>2020-08-09T10:06:50Z</time>
      </trkpt>
      <trkpt lat="51.231320030653" lon="4.503903491558">
        <ele>7.4</ele>
        <time>2020-08-09T10:07:00Z</time>
      </trkpt>
      <trkpt lat="51.231149878083" lon="4.504722487007">
        <ele>6.6</ele>
        <time>2020-08-09T10:07:08Z</time>
      </trkpt>
      <trkpt lat="51.23098668249" lon="4.505605603991">
        <ele>7.8</ele>
        <time>2020-08-09T10:07:16Z</time>
      </trkpt>
      <trkpt lat="51.230757521344" lon="4.506438094299">
        <ele>8.2</ele>
        <time>2020-08-09T10:07:24Z</time>
      </trkpt>
      <trkpt lat="51.230536239184" lon="4.507327497708">
        <ele>7.4</ele>
        <time>2020-08-09T10:07:33Z</time>
      </trkpt>
      <trkpt lat="51.230488965268" lon="4.508227797587">
        <ele>18.8</ele>
        <time>2020-08-09T10:07:42Z</time>
      </trkpt>
      <trkpt lat="51.230323506562" lon="4.509086523242">
        <ele>20.4</ele>
        <time>2020-08-09T10:07:51Z</time>
      </trkpt>
      <trkpt lat="51.230082694575" lon="4.50993745373">
        <ele>19.2</ele>
        <time>2020-08-09T10:08:00Z</time>
      </trkpt>
      <trkpt lat="51.229901813173" lon="4.510782013974">
        <ele>20.8</ele>
        <time>2020-08-09T10:08:09Z</time>
      </trkpt>
      <trkpt lat="51.229888988866" lon="4.510879663109">
        <ele>20.6</ele>
        <time>2020-08-09T10:08:10Z</time>
      </trkpt>
      <trkpt lat="51.229843894244" lon="4.51115450561">
        <ele>18.6</ele>
        <time>2020-08-09T10:08:13Z</time>
      </trkpt>
      <trkpt lat="51.229773905379" lon="4.511320551049">
        <ele>16.8</ele>
        <time>2020-08-09T10:08:15Z</time>
      </trkpt>
      <trkpt lat="51.229604926275" lon="4.511824135601">
        <ele>11</ele>
        <time>2020-08-09T10:08:21Z</time>
      </trkpt>
      <trkpt lat="51.229373669654" lon="4.512693590088">
        <ele>4.8</ele>
        <time>2020-08-09T10:08:31Z</time>
      </trkpt>
      <trkpt lat="51.22916781019" lon="4.513489116217">
        <ele>3.4</ele>
        <time>2020-08-09T10:08:40Z</time>
      </trkpt>
      <trkpt lat="51.228998747267" lon="4.514327222398">
        <ele>0.8</ele>
        <time>2020-08-09T10:08:50Z</time>
      </trkpt>
      <trkpt lat="51.228821302444" lon="4.515176727963">
        <ele>3.2</ele>
        <time>2020-08-09T10:09:00Z</time>
      </trkpt>
      <trkpt lat="51.228651904245" lon="4.51607719548">
        <ele>3.6</ele>
        <time>2020-08-09T10:09:10Z</time>
      </trkpt>
      <trkpt lat="51.228488792471" lon="4.516903399363">
        <ele>2.8</ele>
        <time>2020-08-09T10:09:19Z</time>
      </trkpt>
      <trkpt lat="51.228414109742" lon="4.517073468114">
        <ele>5.4</ele>
        <time>2020-08-09T10:09:21Z</time>
      </trkpt>
      <trkpt lat="51.228083695244" lon="4.517870586804">
        <ele>18.6</ele>
        <time>2020-08-09T10:09:30Z</time>
      </trkpt>
      <trkpt lat="51.227747748692" lon="4.518660161784">
        <ele>23</ele>
        <time>2020-08-09T10:09:39Z</time>
      </trkpt>
      <trkpt lat="51.227504925049" lon="4.519159471567">
        <ele>20.8</ele>
        <time>2020-08-09T10:09:45Z</time>
      </trkpt>
      <trkpt lat="51.227389422467" lon="4.519255025227">
        <ele>20</ele>
        <time>2020-08-09T10:09:47Z</time>
      </trkpt>
      <trkpt lat="51.227278362292" lon="4.51932853449">
        <ele>20.6</ele>
        <time>2020-08-09T10:09:49Z</time>
      </trkpt>
      <trkpt lat="51.22703210207" lon="4.519642771921">
        <ele>22</ele>
        <time>2020-08-09T10:10:04Z</time>
      </trkpt>
      <trkpt lat="51.227134612707" lon="4.519969833659">
        <ele>21.2</ele>
        <time>2020-08-09T10:10:09Z</time>
      </trkpt>
      <trkpt lat="51.227293030617" lon="4.520879688904">
        <ele>17.2</ele>
        <time>2020-08-09T10:10:19Z</time>
      </trkpt>
      <trkpt lat="51.227476258951" lon="4.521767248295">
        <ele>15.2</ele>
        <time>2020-08-09T10:10:28Z</time>
      </trkpt>
      <trkpt lat="51.227640376553" lon="4.522707781294">
        <ele>12.4</ele>
        <time>2020-08-09T10:10:37Z</time>
      </trkpt>
      <trkpt lat="51.227666108986" lon="4.523090917943">
        <ele>10.6</ele>
        <time>2020-08-09T10:10:41Z</time>
      </trkpt>
      <trkpt lat="51.227706342106" lon="4.523913014695">
        <ele>13.8</ele>
        <time>2020-08-09T10:10:50Z</time>
      </trkpt>
      <trkpt lat="51.227908094439" lon="4.524761430613">
        <ele>15.2</ele>
        <time>2020-08-09T10:10:59Z</time>
      </trkpt>
      <trkpt lat="51.228091741868" lon="4.525600458803">
        <ele>11.8</ele>
        <time>2020-08-09T10:11:07Z</time>
      </trkpt>
      <trkpt lat="51.228216715997" lon="4.526442672115">
        <ele>10.2</ele>
        <time>2020-08-09T10:11:15Z</time>
      </trkpt>
      <trkpt lat="51.228364991808" lon="4.527285053065">
        <ele>11.6</ele>
        <time>2020-08-09T10:11:23Z</time>
      </trkpt>
      <trkpt lat="51.228560038621" lon="4.528580140434">
        <ele>7.8</ele>
        <time>2020-08-09T10:11:35Z</time>
      </trkpt>
      <trkpt lat="51.228546543762" lon="4.529518158863">
        <ele>3.6</ele>
        <time>2020-08-09T10:11:44Z</time>
      </trkpt>
      <trkpt lat="51.228566660322" lon="4.530405718254">
        <ele>2</ele>
        <time>2020-08-09T10:11:53Z</time>
      </trkpt>
      <trkpt lat="51.228537407491" lon="4.530664467507">
        <ele>2</ele>
        <time>2020-08-09T10:11:56Z</time>
      </trkpt>
      <trkpt lat="51.228371026776" lon="4.530887761323">
        <ele>3</ele>
        <time>2020-08-09T10:11:59Z</time>
      </trkpt>
      <trkpt lat="51.228011275628" lon="4.531462256749">
        <ele>7.6</ele>
        <time>2020-08-09T10:12:17Z</time>
      </trkpt>
      <trkpt lat="51.228023010288" lon="4.531472482667">
        <ele>7.6</ele>
        <time>2020-08-09T10:12:19Z</time>
      </trkpt>
      <trkpt lat="51.228666237294" lon="4.535836602721">
        <ele>5.2</ele>
        <time>2020-08-09T10:13:50Z</time>
      </trkpt>
      <trkpt lat="51.228507065013" lon="4.536742099378">
        <ele>5.6</ele>
        <time>2020-08-09T10:13:58Z</time>
      </trkpt>
      <trkpt lat="51.228368009292" lon="4.537648350406">
        <ele>8.6</ele>
        <time>2020-08-09T10:14:06Z</time>
      </trkpt>
      <trkpt lat="51.228352083682" lon="4.537932748273">
        <ele>12.4</ele>
        <time>2020-08-09T10:14:09Z</time>
      </trkpt>
      <trkpt lat="51.228262732628" lon="4.537948254788">
        <ele>11.2</ele>
        <time>2020-08-09T10:14:11Z</time>
      </trkpt>
      <trkpt lat="51.22822568463" lon="4.537731331216">
        <ele>7</ele>
        <time>2020-08-09T10:14:14Z</time>
      </trkpt>
      <trkpt lat="51.228231216684" lon="4.537573751496">
        <ele>6</ele>
        <time>2020-08-09T10:14:16Z</time>
      </trkpt>
      <trkpt lat="51.228221577499" lon="4.536698848774">
        <ele>2.8</ele>
        <time>2020-08-09T10:14:26Z</time>
      </trkpt>
      <trkpt lat="51.228194923057" lon="4.536343707671">
        <ele>2.4</ele>
        <time>2020-08-09T10:14:30Z</time>
      </trkpt>
      <trkpt lat="51.228128873685" lon="4.536259804852">
        <ele>1</ele>
        <time>2020-08-09T10:14:32Z</time>
      </trkpt>
      <trkpt lat="51.228003145185" lon="4.536276987747">
        <ele>0</ele>
        <time>2020-08-09T10:14:35Z</time>
      </trkpt>
      <trkpt lat="51.227927372809" lon="4.536344126766">
        <ele>0</ele>
        <time>2020-08-09T10:14:37Z</time>
      </trkpt>
      <trkpt lat="51.227541302495" lon="4.536998669337">
        <ele>0.8</ele>
        <time>2020-08-09T10:14:49Z</time>
      </trkpt>
      <trkpt lat="51.227516827347" lon="4.537055750076">
        <ele>1.2</ele>
        <time>2020-08-09T10:14:50Z</time>
      </trkpt>
      <trkpt lat="51.227277775559" lon="4.537776006743">
        <ele>7.4</ele>
        <time>2020-08-09T10:15:02Z</time>
      </trkpt>
      <trkpt lat="51.226945517043" lon="4.538559211479">
        <ele>6.2</ele>
        <time>2020-08-09T10:15:12Z</time>
      </trkpt>
      <trkpt lat="51.226713757508" lon="4.539410393424">
        <ele>7.8</ele>
        <time>2020-08-09T10:15:21Z</time>
      </trkpt>
      <trkpt lat="51.226479483403" lon="4.540237854592">
        <ele>9.2</ele>
        <time>2020-08-09T10:15:29Z</time>
      </trkpt>
      <trkpt lat="51.226219393046" lon="4.541076547506">
        <ele>9</ele>
        <time>2020-08-09T10:15:37Z</time>
      </trkpt>
      <trkpt lat="51.226076984565" lon="4.541547358829">
        <ele>9.4</ele>
        <time>2020-08-09T10:15:42Z</time>
      </trkpt>
      <trkpt lat="51.225901551398" lon="4.542110119595">
        <ele>5.6</ele>
        <time>2020-08-09T10:17:07Z</time>
      </trkpt>
      <trkpt lat="51.225630816028" lon="4.542959289884">
        <ele>3.8</ele>
        <time>2020-08-09T10:17:18Z</time>
      </trkpt>
      <trkpt lat="51.225437613233" lon="4.543756324755">
        <ele>5.2</ele>
        <time>2020-08-09T10:17:26Z</time>
      </trkpt>
      <trkpt lat="51.225182049102" lon="4.544560232784">
        <ele>5.8</ele>
        <time>2020-08-09T10:17:34Z</time>
      </trkpt>
      <trkpt lat="51.224890945715" lon="4.545410911815">
        <ele>4.4</ele>
        <time>2020-08-09T10:17:42Z</time>
      </trkpt>
      <trkpt lat="51.224612750454" lon="4.546280366302">
        <ele>3.8</ele>
        <time>2020-08-09T10:17:50Z</time>
      </trkpt>
      <trkpt lat="51.224341093075" lon="4.547151245712">
        <ele>6.6</ele>
        <time>2020-08-09T10:17:58Z</time>
      </trkpt>
      <trkpt lat="51.224057868674" lon="4.548015000507">
        <ele>7</ele>
        <time>2020-08-09T10:18:06Z</time>
      </trkpt>
      <trkpt lat="51.223787552399" lon="4.54886383552">
        <ele>7.4</ele>
        <time>2020-08-09T10:18:14Z</time>
      </trkpt>
      <trkpt lat="51.223531652992" lon="4.549709233954">
        <ele>9.8</ele>
        <time>2020-08-09T10:18:22Z</time>
      </trkpt>
      <trkpt lat="51.223268042237" lon="4.550538287683">
        <ele>10.8</ele>
        <time>2020-08-09T10:18:30Z</time>
      </trkpt>
      <trkpt lat="51.223031672657" lon="4.551354014191">
        <ele>10.4</ele>
        <time>2020-08-09T10:18:38Z</time>
      </trkpt>
      <trkpt lat="51.222788932833" lon="4.552146271379">
        <ele>9.4</ele>
        <time>2020-08-09T10:18:46Z</time>
      </trkpt>
      <trkpt lat="51.222533201064" lon="4.552932828875">
        <ele>10</ele>
        <time>2020-08-09T10:18:54Z</time>
      </trkpt>
      <trkpt lat="51.222259196753" lon="4.553721817122">
        <ele>13.2</ele>
        <time>2020-08-09T10:19:02Z</time>
      </trkpt>
      <trkpt lat="51.221996843283" lon="4.554515499233">
        <ele>15.8</ele>
        <time>2020-08-09T10:19:10Z</time>
      </trkpt>
      <trkpt lat="51.221764748472" lon="4.555317814701">
        <ele>16.8</ele>
        <time>2020-08-09T10:19:18Z</time>
      </trkpt>
      <trkpt lat="51.221538437172" lon="4.556125997499">
        <ele>15.8</ele>
        <time>2020-08-09T10:19:26Z</time>
      </trkpt>
      <trkpt lat="51.221304246886" lon="4.556940131446">
        <ele>13.2</ele>
        <time>2020-08-09T10:19:34Z</time>
      </trkpt>
      <trkpt lat="51.221026973634" lon="4.557766838243">
        <ele>10.6</ele>
        <time>2020-08-09T10:19:42Z</time>
      </trkpt>
      <trkpt lat="51.220756657359" lon="4.558613242505">
        <ele>11</ele>
        <time>2020-08-09T10:19:50Z</time>
      </trkpt>
      <trkpt lat="51.220491118767" lon="4.559448163564">
        <ele>11.6</ele>
        <time>2020-08-09T10:19:58Z</time>
      </trkpt>
      <trkpt lat="51.220210325117" lon="4.560292639989">
        <ele>12.2</ele>
        <time>2020-08-09T10:20:06Z</time>
      </trkpt>
      <trkpt lat="51.219946462905" lon="4.561147007056">
        <ele>10.4</ele>
        <time>2020-08-09T10:20:14Z</time>
      </trkpt>
      <trkpt lat="51.219696933742" lon="4.562003469598">
        <ele>10.2</ele>
        <time>2020-08-09T10:20:22Z</time>
      </trkpt>
      <trkpt lat="51.219439106498" lon="4.562777286606">
        <ele>10.6</ele>
        <time>2020-08-09T10:20:30Z</time>
      </trkpt>
      <trkpt lat="51.219179686693" lon="4.563545068646">
        <ele>9.8</ele>
        <time>2020-08-09T10:20:38Z</time>
      </trkpt>
      <trkpt lat="51.21893518667" lon="4.564334643626">
        <ele>9.6</ele>
        <time>2020-08-09T10:20:46Z</time>
      </trkpt>
      <trkpt lat="51.218685741326" lon="4.565101084562">
        <ele>9.2</ele>
        <time>2020-08-09T10:20:54Z</time>
      </trkpt>
      <trkpt lat="51.218425483331" lon="4.565941621494">
        <ele>8.4</ele>
        <time>2020-08-09T10:21:03Z</time>
      </trkpt>
      <trkpt lat="51.218145192595" lon="4.56679355781">
        <ele>8.8</ele>
        <time>2020-08-09T10:21:12Z</time>
      </trkpt>
      <trkpt lat="51.217874960139" lon="4.567630741982">
        <ele>8.4</ele>
        <time>2020-08-09T10:21:21Z</time>
      </trkpt>
      <trkpt lat="51.217596429602" lon="4.568484857592">
        <ele>7.8</ele>
        <time>2020-08-09T10:21:30Z</time>
      </trkpt>
      <trkpt lat="51.21732418549" lon="4.569348696206">
        <ele>8.6</ele>
        <time>2020-08-09T10:21:39Z</time>
      </trkpt>
      <trkpt lat="51.217085804254" lon="4.570127542354">
        <ele>8.8</ele>
        <time>2020-08-09T10:21:47Z</time>
      </trkpt>
      <trkpt lat="51.21680283131" lon="4.570978053747">
        <ele>9.4</ele>
        <time>2020-08-09T10:21:56Z</time>
      </trkpt>
      <trkpt lat="51.216536789804" lon="4.571826218208">
        <ele>9.4</ele>
        <time>2020-08-09T10:22:05Z</time>
      </trkpt>
      <trkpt lat="51.21627644799" lon="4.572692068478">
        <ele>8.2</ele>
        <time>2020-08-09T10:22:14Z</time>
      </trkpt>
      <trkpt lat="51.216011328493" lon="4.573545848812">
        <ele>8</ele>
        <time>2020-08-09T10:22:23Z</time>
      </trkpt>
      <trkpt lat="51.215788286134" lon="4.574329053548">
        <ele>8.6</ele>
        <time>2020-08-09T10:22:31Z</time>
      </trkpt>
      <trkpt lat="51.21550028405" lon="4.575175960724">
        <ele>9.4</ele>
        <time>2020-08-09T10:22:40Z</time>
      </trkpt>
      <trkpt lat="51.215341698502" lon="4.575640317984">
        <ele>9.6</ele>
        <time>2020-08-09T10:22:45Z</time>
      </trkpt>
      <trkpt lat="51.214468975074" lon="4.578341636716">
        <ele>8.4</ele>
        <time>2020-08-09T10:23:34Z</time>
      </trkpt>
      <trkpt lat="51.214207459794" lon="4.579196171421">
        <ele>4.6</ele>
        <time>2020-08-09T10:23:44Z</time>
      </trkpt>
      <trkpt lat="51.213958601183" lon="4.57998247746">
        <ele>3.8</ele>
        <time>2020-08-09T10:23:52Z</time>
      </trkpt>
      <trkpt lat="51.213691050935" lon="4.580801975823">
        <ele>5</ele>
        <time>2020-08-09T10:24:00Z</time>
      </trkpt>
      <trkpt lat="51.213426518171" lon="4.581601609083">
        <ele>5.6</ele>
        <time>2020-08-09T10:24:08Z</time>
      </trkpt>
      <trkpt lat="51.213167517461" lon="4.582381963973">
        <ele>7.2</ele>
        <time>2020-08-09T10:24:16Z</time>
      </trkpt>
      <trkpt lat="51.212913797348" lon="4.583180339948">
        <ele>9.4</ele>
        <time>2020-08-09T10:24:24Z</time>
      </trkpt>
      <trkpt lat="51.212637362286" lon="4.58397226186">
        <ele>10.2</ele>
        <time>2020-08-09T10:24:32Z</time>
      </trkpt>
      <trkpt lat="51.212372326608" lon="4.584748090524">
        <ele>9</ele>
        <time>2020-08-09T10:24:40Z</time>
      </trkpt>
      <trkpt lat="51.21213243663" lon="4.585526769034">
        <ele>8</ele>
        <time>2020-08-09T10:24:48Z</time>
      </trkpt>
      <trkpt lat="51.211844015451" lon="4.58636194155">
        <ele>8.2</ele>
        <time>2020-08-09T10:24:57Z</time>
      </trkpt>
      <trkpt lat="51.211585014741" lon="4.587117318378">
        <ele>7.6</ele>
        <time>2020-08-09T10:25:05Z</time>
      </trkpt>
      <trkpt lat="51.211350237722" lon="4.587891303024">
        <ele>9.4</ele>
        <time>2020-08-09T10:25:13Z</time>
      </trkpt>
      <trkpt lat="51.211096852885" lon="4.58868456604">
        <ele>8.8</ele>
        <time>2020-08-09T10:25:21Z</time>
      </trkpt>
      <trkpt lat="51.210842210763" lon="4.589459137419">
        <ele>8.8</ele>
        <time>2020-08-09T10:25:29Z</time>
      </trkpt>
      <trkpt lat="51.21059854893" lon="4.590225913631">
        <ele>10.2</ele>
        <time>2020-08-09T10:25:37Z</time>
      </trkpt>
      <trkpt lat="51.210321191859" lon="4.591069132771">
        <ele>9.8</ele>
        <time>2020-08-09T10:25:46Z</time>
      </trkpt>
      <trkpt lat="51.210034530879" lon="4.591910591712">
        <ele>8</ele>
        <time>2020-08-09T10:25:55Z</time>
      </trkpt>
      <trkpt lat="51.209763795509" lon="4.592760264915">
        <ele>8.2</ele>
        <time>2020-08-09T10:26:04Z</time>
      </trkpt>
      <trkpt lat="51.209520720409" lon="4.593529974792">
        <ele>8.4</ele>
        <time>2020-08-09T10:26:12Z</time>
      </trkpt>
      <trkpt lat="51.20924990122" lon="4.594380402366">
        <ele>8.2</ele>
        <time>2020-08-09T10:26:21Z</time>
      </trkpt>
      <trkpt lat="51.20898587137" lon="4.595201241833">
        <ele>7.4</ele>
        <time>2020-08-09T10:26:30Z</time>
      </trkpt>
      <trkpt lat="51.208751345808" lon="4.596023841499">
        <ele>10.2</ele>
        <time>2020-08-09T10:26:39Z</time>
      </trkpt>
      <trkpt lat="51.208466109751" lon="4.596835544695">
        <ele>11</ele>
        <time>2020-08-09T10:26:48Z</time>
      </trkpt>
      <trkpt lat="51.208182382436" lon="4.597625454951">
        <ele>10.6</ele>
        <time>2020-08-09T10:26:57Z</time>
      </trkpt>
      <trkpt lat="51.207925141925" lon="4.598397763217">
        <ele>9.6</ele>
        <time>2020-08-09T10:27:06Z</time>
      </trkpt>
      <trkpt lat="51.207649209777" lon="4.599187338197">
        <ele>8</ele>
        <time>2020-08-09T10:27:15Z</time>
      </trkpt>
      <trkpt lat="51.207372690896" lon="4.599937518247">
        <ele>8.2</ele>
        <time>2020-08-09T10:27:24Z</time>
      </trkpt>
      <trkpt lat="51.207107990494" lon="4.600725919761">
        <ele>8.6</ele>
        <time>2020-08-09T10:27:33Z</time>
      </trkpt>
      <trkpt lat="51.206846391395" lon="4.60156586996">
        <ele>8.4</ele>
        <time>2020-08-09T10:27:42Z</time>
      </trkpt>
      <trkpt lat="51.206577332405" lon="4.602372963111">
        <ele>7</ele>
        <time>2020-08-09T10:27:51Z</time>
      </trkpt>
      <trkpt lat="51.206341968653" lon="4.603221127572">
        <ele>3.8</ele>
        <time>2020-08-09T10:28:00Z</time>
      </trkpt>
      <trkpt lat="51.206069640722" lon="4.60403936865">
        <ele>5.2</ele>
        <time>2020-08-09T10:28:09Z</time>
      </trkpt>
      <trkpt lat="51.205815920609" lon="4.60491192444">
        <ele>8.2</ele>
        <time>2020-08-09T10:28:18Z</time>
      </trkpt>
      <trkpt lat="51.205591788603" lon="4.605702253791">
        <ele>8.4</ele>
        <time>2020-08-09T10:28:26Z</time>
      </trkpt>
      <trkpt lat="51.20536153781" lon="4.606512448245">
        <ele>12.6</ele>
        <time>2020-08-09T10:28:35Z</time>
      </trkpt>
      <trkpt lat="51.205029698389" lon="4.607275871697">
        <ele>10.4</ele>
        <time>2020-08-09T10:28:45Z</time>
      </trkpt>
      <trkpt lat="51.204748485644" lon="4.608081707563">
        <ele>10</ele>
        <time>2020-08-09T10:28:55Z</time>
      </trkpt>
      <trkpt lat="51.204478169369" lon="4.608927525092">
        <ele>8.8</ele>
        <time>2020-08-09T10:29:05Z</time>
      </trkpt>
      <trkpt lat="51.204037951981" lon="4.610510363088">
        <ele>7.6</ele>
        <time>2020-08-09T10:29:23Z</time>
      </trkpt>
      <trkpt lat="51.203985481287" lon="4.611396413737">
        <ele>7.6</ele>
        <time>2020-08-09T10:29:32Z</time>
      </trkpt>
      <trkpt lat="51.204071395762" lon="4.612286822974">
        <ele>7.2</ele>
        <time>2020-08-09T10:29:41Z</time>
      </trkpt>
      <trkpt lat="51.204288738429" lon="4.613124258603">
        <ele>7.8</ele>
        <time>2020-08-09T10:29:50Z</time>
      </trkpt>
      <trkpt lat="51.204666259205" lon="4.613868906599">
        <ele>7.2</ele>
        <time>2020-08-09T10:29:59Z</time>
      </trkpt>
      <trkpt lat="51.205098094693" lon="4.614382800888">
        <ele>8</ele>
        <time>2020-08-09T10:30:07Z</time>
      </trkpt>
      <trkpt lat="51.205609055317" lon="4.614717825431">
        <ele>8.8</ele>
        <time>2020-08-09T10:30:15Z</time>
      </trkpt>
      <trkpt lat="51.206151448066" lon="4.61483357947">
        <ele>8.8</ele>
        <time>2020-08-09T10:30:23Z</time>
      </trkpt>
      <trkpt lat="51.206694176091" lon="4.614774487075">
        <ele>7.4</ele>
        <time>2020-08-09T10:30:31Z</time>
      </trkpt>
      <trkpt lat="51.206829627595" lon="4.614759567293">
        <ele>7.2</ele>
        <time>2020-08-09T10:30:33Z</time>
      </trkpt>
      <trkpt lat="51.206938927571" lon="4.61485956336">
        <ele>7.2</ele>
        <time>2020-08-09T10:30:35Z</time>
      </trkpt>
      <trkpt lat="51.206998103785" lon="4.615056202734">
        <ele>7.8</ele>
        <time>2020-08-09T10:30:37Z</time>
      </trkpt>
      <trkpt lat="51.207023333304" lon="4.615286453527">
        <ele>7.8</ele>
        <time>2020-08-09T10:30:39Z</time>
      </trkpt>
      <trkpt lat="51.207062309139" lon="4.616173677642">
        <ele>6.6</ele>
        <time>2020-08-09T10:30:47Z</time>
      </trkpt>
      <trkpt lat="51.207059543112" lon="4.616389511567">
        <ele>7.2</ele>
        <time>2020-08-09T10:30:49Z</time>
      </trkpt>
      <trkpt lat="51.20699097917" lon="4.616566872571">
        <ele>6.8</ele>
        <time>2020-08-09T10:30:51Z</time>
      </trkpt>
      <trkpt lat="51.20686189791" lon="4.616640465653">
        <ele>5.8</ele>
        <time>2020-08-09T10:30:53Z</time>
      </trkpt>
      <trkpt lat="51.206291677253" lon="4.616733504743">
        <ele>4.2</ele>
        <time>2020-08-09T10:31:01Z</time>
      </trkpt>
      <trkpt lat="51.20572782684" lon="4.616873147197">
        <ele>6.6</ele>
        <time>2020-08-09T10:31:09Z</time>
      </trkpt>
      <trkpt lat="51.205199934778" lon="4.617085544543">
        <ele>7.8</ele>
        <time>2020-08-09T10:31:17Z</time>
      </trkpt>
      <trkpt lat="51.204682520091" lon="4.617348400927">
        <ele>9</ele>
        <time>2020-08-09T10:31:25Z</time>
      </trkpt>
      <trkpt lat="51.204135517297" lon="4.61768174909">
        <ele>8.8</ele>
        <time>2020-08-09T10:31:34Z</time>
      </trkpt>
      <trkpt lat="51.203619108438" lon="4.61806396373">
        <ele>8.6</ele>
        <time>2020-08-09T10:31:43Z</time>
      </trkpt>
      <trkpt lat="51.203131784772" lon="4.618501918005">
        <ele>9.6</ele>
        <time>2020-08-09T10:31:52Z</time>
      </trkpt>
      <trkpt lat="51.202644628744" lon="4.61900189834">
        <ele>8.8</ele>
        <time>2020-08-09T10:32:01Z</time>
      </trkpt>
      <trkpt lat="51.20219904694" lon="4.61950313596">
        <ele>9</ele>
        <time>2020-08-09T10:32:10Z</time>
      </trkpt>
      <trkpt lat="51.201741479019" lon="4.620113170642">
        <ele>10.4</ele>
        <time>2020-08-09T10:32:20Z</time>
      </trkpt>
      <trkpt lat="51.201345685701" lon="4.62071599689">
        <ele>10</ele>
        <time>2020-08-09T10:32:29Z</time>
      </trkpt>
      <trkpt lat="51.200960285939" lon="4.621358972439">
        <ele>9.6</ele>
        <time>2020-08-09T10:32:38Z</time>
      </trkpt>
      <trkpt lat="51.20059558947" lon="4.622079229106">
        <ele>4.4</ele>
        <time>2020-08-09T10:32:47Z</time>
      </trkpt>
      <trkpt lat="51.200286213541" lon="4.62280728094">
        <ele>3.8</ele>
        <time>2020-08-09T10:32:56Z</time>
      </trkpt>
      <trkpt lat="51.199969210083" lon="4.623592497332">
        <ele>4.4</ele>
        <time>2020-08-09T10:33:05Z</time>
      </trkpt>
      <trkpt lat="51.199683890207" lon="4.624427418391">
        <ele>5.8</ele>
        <time>2020-08-09T10:33:14Z</time>
      </trkpt>
      <trkpt lat="51.199430840646" lon="4.62526569221">
        <ele>9.8</ele>
        <time>2020-08-09T10:33:23Z</time>
      </trkpt>
      <trkpt lat="51.199207127735" lon="4.62609885307">
        <ele>12.6</ele>
        <time>2020-08-09T10:33:32Z</time>
      </trkpt>
      <trkpt lat="51.199001184452" lon="4.6269093828">
        <ele>12.4</ele>
        <time>2020-08-09T10:33:41Z</time>
      </trkpt>
      <trkpt lat="51.19880940658" lon="4.627761738211">
        <ele>8.8</ele>
        <time>2020-08-09T10:33:50Z</time>
      </trkpt>
      <trkpt lat="51.198629447187" lon="4.62864192153">
        <ele>10</ele>
        <time>2020-08-09T10:34:00Z</time>
      </trkpt>
      <trkpt lat="51.198444374835" lon="4.629464856472">
        <ele>9.8</ele>
        <time>2020-08-09T10:34:09Z</time>
      </trkpt>
      <trkpt lat="51.198256620275" lon="4.630367587102">
        <ele>11.4</ele>
        <time>2020-08-09T10:34:19Z</time>
      </trkpt>
      <trkpt lat="51.198110188482" lon="4.631208040215">
        <ele>12.8</ele>
        <time>2020-08-09T10:34:28Z</time>
      </trkpt>
      <trkpt lat="51.19797876029" lon="4.632054528296">
        <ele>16.2</ele>
        <time>2020-08-09T10:34:37Z</time>
      </trkpt>
      <trkpt lat="51.197828556642" lon="4.632966227559">
        <ele>13.4</ele>
        <time>2020-08-09T10:34:47Z</time>
      </trkpt>
      <trkpt lat="51.197697882821" lon="4.633824198843">
        <ele>11.4</ele>
        <time>2020-08-09T10:34:56Z</time>
      </trkpt>
      <trkpt lat="51.197578524565" lon="4.634750566431">
        <ele>11.4</ele>
        <time>2020-08-09T10:35:06Z</time>
      </trkpt>
      <trkpt lat="51.19748925733" lon="4.635680873512">
        <ele>12.8</ele>
        <time>2020-08-09T10:35:16Z</time>
      </trkpt>
      <trkpt lat="51.197383729209" lon="4.636535324398">
        <ele>13.2</ele>
        <time>2020-08-09T10:35:25Z</time>
      </trkpt>
      <trkpt lat="51.197271579387" lon="4.637397738089">
        <ele>11.2</ele>
        <time>2020-08-09T10:35:34Z</time>
      </trkpt>
      <trkpt lat="51.197182060695" lon="4.638245315817">
        <ele>10</ele>
        <time>2020-08-09T10:35:43Z</time>
      </trkpt>
      <trkpt lat="51.197099163704" lon="4.639171096672">
        <ele>8.6</ele>
        <time>2020-08-09T10:35:53Z</time>
      </trkpt>
      <trkpt lat="51.197000508741" lon="4.640045412661">
        <ele>10.2</ele>
        <time>2020-08-09T10:36:03Z</time>
      </trkpt>
      <trkpt lat="51.1969469484" lon="4.640280524956">
        <ele>9.8</ele>
        <time>2020-08-09T10:36:06Z</time>
      </trkpt>
      <trkpt lat="51.197261940202" lon="4.641083846252">
        <ele>6.6</ele>
        <time>2020-08-09T10:36:24Z</time>
      </trkpt>
      <trkpt lat="51.197701822314" lon="4.641627580105">
        <ele>5.2</ele>
        <time>2020-08-09T10:36:34Z</time>
      </trkpt>
      <trkpt lat="51.198228121815" lon="4.642072072262">
        <ele>6.8</ele>
        <time>2020-08-09T10:36:44Z</time>
      </trkpt>
      <trkpt lat="51.198778645007" lon="4.642403492588">
        <ele>8.6</ele>
        <time>2020-08-09T10:36:54Z</time>
      </trkpt>
      <trkpt lat="51.19913378611" lon="4.642614297373">
        <ele>10.8</ele>
        <time>2020-08-09T10:37:01Z</time>
      </trkpt>
      <trkpt lat="51.1991932976" lon="4.643115954088">
        <ele>9.4</ele>
        <time>2020-08-09T10:37:25Z</time>
      </trkpt>
      <trkpt lat="51.198852741003" lon="4.642821665579">
        <ele>14.4</ele>
        <time>2020-08-09T10:37:34Z</time>
      </trkpt>
      <trkpt lat="51.198763473768" lon="4.642797022793">
        <ele>14.4</ele>
        <time>2020-08-09T10:37:36Z</time>
      </trkpt>
      <trkpt lat="51.198651240127" lon="4.642756622035">
        <ele>13.8</ele>
        <time>2020-08-09T10:37:38Z</time>
      </trkpt>
      <trkpt lat="51.198118318925" lon="4.642577333194">
        <ele>10.2</ele>
        <time>2020-08-09T10:37:47Z</time>
      </trkpt>
      <trkpt lat="51.198010779148" lon="4.642582865248">
        <ele>8.2</ele>
        <time>2020-08-09T10:37:49Z</time>
      </trkpt>
      <trkpt lat="51.19790164681" lon="4.642633743381">
        <ele>8.6</ele>
        <time>2020-08-09T10:37:51Z</time>
      </trkpt>
      <trkpt lat="51.197804752046" lon="4.642746815212">
        <ele>10.4</ele>
        <time>2020-08-09T10:37:53Z</time>
      </trkpt>
      <trkpt lat="51.197698888649" lon="4.642954770151">
        <ele>11</ele>
        <time>2020-08-09T10:37:56Z</time>
      </trkpt>
      <trkpt lat="51.197651782371" lon="4.643120145038">
        <ele>10</ele>
        <time>2020-08-09T10:37:58Z</time>
      </trkpt>
      <trkpt lat="51.197596042736" lon="4.643266744469">
        <ele>8.6</ele>
        <time>2020-08-09T10:38:00Z</time>
      </trkpt>
      <trkpt lat="51.197499064153" lon="4.643322316466">
        <ele>8.2</ele>
        <time>2020-08-09T10:38:02Z</time>
      </trkpt>
      <trkpt lat="51.196954911205" lon="4.643468748259">
        <ele>15</ele>
        <time>2020-08-09T10:38:11Z</time>
      </trkpt>
      <trkpt lat="51.196618126463" lon="4.643538066572">
        <ele>14.4</ele>
        <time>2020-08-09T10:38:17Z</time>
      </trkpt>
      <trkpt lat="51.196557692964" lon="4.643605373229">
        <ele>13.6</ele>
        <time>2020-08-09T10:38:19Z</time>
      </trkpt>
      <trkpt lat="51.196552915281" lon="4.643795977635">
        <ele>12.4</ele>
        <time>2020-08-09T10:38:22Z</time>
      </trkpt>
      <trkpt lat="51.196533888368" lon="4.644658475145">
        <ele>11.6</ele>
        <time>2020-08-09T10:38:31Z</time>
      </trkpt>
      <trkpt lat="51.196427019143" lon="4.645579645955">
        <ele>9.6</ele>
        <time>2020-08-09T10:38:40Z</time>
      </trkpt>
      <trkpt lat="51.196301458281" lon="4.646513641072">
        <ele>10.6</ele>
        <time>2020-08-09T10:38:49Z</time>
      </trkpt>
      <trkpt lat="51.196168772804" lon="4.64742995038">
        <ele>10</ele>
        <time>2020-08-09T10:38:58Z</time>
      </trkpt>
      <trkpt lat="51.196006331582" lon="4.648320191979">
        <ele>10.2</ele>
        <time>2020-08-09T10:39:07Z</time>
      </trkpt>
      <trkpt lat="51.195830144044" lon="4.649178749996">
        <ele>10.8</ele>
        <time>2020-08-09T10:39:16Z</time>
      </trkpt>
      <trkpt lat="51.195650603746" lon="4.65006102879">
        <ele>9.8</ele>
        <time>2020-08-09T10:39:25Z</time>
      </trkpt>
      <trkpt lat="51.195475170579" lon="4.650911204907">
        <ele>9.8</ele>
        <time>2020-08-09T10:39:33Z</time>
      </trkpt>
      <trkpt lat="51.195264868708" lon="4.651726093225">
        <ele>10.6</ele>
        <time>2020-08-09T10:39:41Z</time>
      </trkpt>
      <trkpt lat="51.195070660085" lon="4.652547687063">
        <ele>9.6</ele>
        <time>2020-08-09T10:39:49Z</time>
      </trkpt>
      <trkpt lat="51.194831440659" lon="4.653429127667">
        <ele>8.8</ele>
        <time>2020-08-09T10:39:58Z</time>
      </trkpt>
      <trkpt lat="51.194596998916" lon="4.654267736762">
        <ele>9</ele>
        <time>2020-08-09T10:40:07Z</time>
      </trkpt>
      <trkpt lat="51.194374710928" lon="4.655090336428">
        <ele>9.4</ele>
        <time>2020-08-09T10:40:16Z</time>
      </trkpt>
      <trkpt lat="51.194109591431" lon="4.655913522827">
        <ele>11.4</ele>
        <time>2020-08-09T10:40:25Z</time>
      </trkpt>
      <trkpt lat="51.193749085912" lon="4.656558342394">
        <ele>9.8</ele>
        <time>2020-08-09T10:40:33Z</time>
      </trkpt>
      <trkpt lat="51.193461000009" lon="4.657343810243">
        <ele>10.2</ele>
        <time>2020-08-09T10:40:42Z</time>
      </trkpt>
      <trkpt lat="51.193371481317" lon="4.657695514767">
        <ele>10</ele>
        <time>2020-08-09T10:40:46Z</time>
      </trkpt>
      <trkpt lat="51.19328070534" lon="4.658553821327">
        <ele>9</ele>
        <time>2020-08-09T10:40:55Z</time>
      </trkpt>
      <trkpt lat="51.193240220763" lon="4.658916841416">
        <ele>10.4</ele>
        <time>2020-08-09T10:40:59Z</time>
      </trkpt>
      <trkpt lat="51.193205016783" lon="4.6590874969">
        <ele>10.6</ele>
        <time>2020-08-09T10:41:01Z</time>
      </trkpt>
      <trkpt lat="51.192950709937" lon="4.659915209525">
        <ele>11</ele>
        <time>2020-08-09T10:41:11Z</time>
      </trkpt>
      <trkpt lat="51.19271660347" lon="4.660794470835">
        <ele>12.6</ele>
        <time>2020-08-09T10:41:21Z</time>
      </trkpt>
      <trkpt lat="51.192506301599" lon="4.661613633922">
        <ele>12.4</ele>
        <time>2020-08-09T10:41:30Z</time>
      </trkpt>
      <trkpt lat="51.19230086123" lon="4.662442100918">
        <ele>13.4</ele>
        <time>2020-08-09T10:41:39Z</time>
      </trkpt>
      <trkpt lat="51.192107323159" lon="4.663291355026">
        <ele>13.2</ele>
        <time>2020-08-09T10:41:48Z</time>
      </trkpt>
      <trkpt lat="51.191729383288" lon="4.66493051939">
        <ele>15.4</ele>
        <time>2020-08-09T10:42:05Z</time>
      </trkpt>
      <trkpt lat="51.191531067534" lon="4.665782539525">
        <ele>15.2</ele>
        <time>2020-08-09T10:42:14Z</time>
      </trkpt>
      <trkpt lat="51.191374912737" lon="4.666620813344">
        <ele>15.2</ele>
        <time>2020-08-09T10:42:23Z</time>
      </trkpt>
      <trkpt lat="51.191203838158" lon="4.667467385244">
        <ele>13.4</ele>
        <time>2020-08-09T10:42:32Z</time>
      </trkpt>
      <trkpt lat="51.191025052231" lon="4.66832686527">
        <ele>11.4</ele>
        <time>2020-08-09T10:42:41Z</time>
      </trkpt>
      <trkpt lat="51.190856492222" lon="4.669164636175">
        <ele>11</ele>
        <time>2020-08-09T10:42:50Z</time>
      </trkpt>
      <trkpt lat="51.190680807598" lon="4.670045741503">
        <ele>11.8</ele>
        <time>2020-08-09T10:43:00Z</time>
      </trkpt>
      <trkpt lat="51.190502273128" lon="4.670935144912">
        <ele>11</ele>
        <time>2020-08-09T10:43:10Z</time>
      </trkpt>
      <trkpt lat="51.190331198549" lon="4.671848185279">
        <ele>10.6</ele>
        <time>2020-08-09T10:43:20Z</time>
      </trkpt>
      <trkpt lat="51.190165320748" lon="4.672698529034">
        <ele>10.8</ele>
        <time>2020-08-09T10:43:29Z</time>
      </trkpt>
      <trkpt lat="51.190000364956" lon="4.67359991856">
        <ele>13.8</ele>
        <time>2020-08-09T10:43:39Z</time>
      </trkpt>
      <trkpt lat="51.189826021436" lon="4.674500888991">
        <ele>14.8</ele>
        <time>2020-08-09T10:43:49Z</time>
      </trkpt>
      <trkpt lat="51.189649582441" lon="4.675383419242">
        <ele>16.2</ele>
        <time>2020-08-09T10:43:59Z</time>
      </trkpt>
      <trkpt lat="51.189468449582" lon="4.67626536276">
        <ele>14.8</ele>
        <time>2020-08-09T10:44:09Z</time>
      </trkpt>
      <trkpt lat="51.189295363347" lon="4.67712031656">
        <ele>11.2</ele>
        <time>2020-08-09T10:44:19Z</time>
      </trkpt>
      <trkpt lat="51.189121271284" lon="4.677960350578">
        <ele>7.8</ele>
        <time>2020-08-09T10:44:29Z</time>
      </trkpt>
      <trkpt lat="51.188944161737" lon="4.67885453167">
        <ele>7.2</ele>
        <time>2020-08-09T10:44:39Z</time>
      </trkpt>
      <trkpt lat="51.188787587845" lon="4.67969607443">
        <ele>6.4</ele>
        <time>2020-08-09T10:44:48Z</time>
      </trkpt>
      <trkpt lat="51.18861198704" lon="4.680586818943">
        <ele>7.2</ele>
        <time>2020-08-09T10:44:58Z</time>
      </trkpt>
      <trkpt lat="51.188439236081" lon="4.681430792454">
        <ele>8.8</ele>
        <time>2020-08-09T10:45:08Z</time>
      </trkpt>
      <trkpt lat="51.188274783203" lon="4.682271329386">
        <ele>10.2</ele>
        <time>2020-08-09T10:45:18Z</time>
      </trkpt>
      <trkpt lat="51.188106809927" lon="4.683122846607">
        <ele>9.6</ele>
        <time>2020-08-09T10:45:28Z</time>
      </trkpt>
      <trkpt lat="51.18793221495" lon="4.684017530613">
        <ele>12</ele>
        <time>2020-08-09T10:45:38Z</time>
      </trkpt>
      <trkpt lat="51.187773713221" lon="4.684910370601">
        <ele>9.6</ele>
        <time>2020-08-09T10:45:47Z</time>
      </trkpt>
      <trkpt lat="51.187594843475" lon="4.685735568656">
        <ele>8.6</ele>
        <time>2020-08-09T10:45:56Z</time>
      </trkpt>
      <trkpt lat="51.187421421964" lon="4.686612902129">
        <ele>7.2</ele>
        <time>2020-08-09T10:46:06Z</time>
      </trkpt>
      <trkpt lat="51.187248419548" lon="4.687459222572">
        <ele>7.2</ele>
        <time>2020-08-09T10:46:16Z</time>
      </trkpt>
      <trkpt lat="51.187087738525" lon="4.688333454742">
        <ele>7</ele>
        <time>2020-08-09T10:46:26Z</time>
      </trkpt>
      <trkpt lat="51.186931835185" lon="4.689207603093">
        <ele>7.4</ele>
        <time>2020-08-09T10:46:36Z</time>
      </trkpt>
      <trkpt lat="51.186807531608" lon="4.689902630241">
        <ele>7.4</ele>
        <time>2020-08-09T10:46:44Z</time>
      </trkpt>
      <trkpt lat="51.186622710713" lon="4.690864285628">
        <ele>5.6</ele>
        <time>2020-08-09T10:48:07Z</time>
      </trkpt>
      <trkpt lat="51.186624387093" lon="4.690873170442">
        <ele>6</ele>
        <time>2020-08-09T10:48:09Z</time>
      </trkpt>
      <trkpt lat="51.186787582686" lon="4.69006113197">
        <ele>13.4</ele>
        <time>2020-08-09T10:50:04Z</time>
      </trkpt>
      <trkpt lat="51.186954466315" lon="4.68907206777">
        <ele>13.2</ele>
        <time>2020-08-09T10:50:15Z</time>
      </trkpt>
      <trkpt lat="51.187101317203" lon="4.688229183906">
        <ele>13</ele>
        <time>2020-08-09T10:50:23Z</time>
      </trkpt>
      <trkpt lat="51.187267446461" lon="4.687345480189">
        <ele>12.6</ele>
        <time>2020-08-09T10:50:31Z</time>
      </trkpt>
      <trkpt lat="51.187448914596" lon="4.686429589976">
        <ele>13</ele>
        <time>2020-08-09T10:50:39Z</time>
      </trkpt>
      <trkpt lat="51.187619234804" lon="4.685611013622">
        <ele>13.2</ele>
        <time>2020-08-09T10:50:46Z</time>
      </trkpt>
      <trkpt lat="51.187787710994" lon="4.684779026228">
        <ele>13.4</ele>
        <time>2020-08-09T10:50:53Z</time>
      </trkpt>
      <trkpt lat="51.187962641247" lon="4.683945613911">
        <ele>14.2</ele>
        <time>2020-08-09T10:51:00Z</time>
      </trkpt>
      <trkpt lat="51.18813086598" lon="4.683094012871">
        <ele>13.8</ele>
        <time>2020-08-09T10:51:07Z</time>
      </trkpt>
      <trkpt lat="51.188293223383" lon="4.682235035759">
        <ele>15</ele>
        <time>2020-08-09T10:51:14Z</time>
      </trkpt>
      <trkpt lat="51.188456167519" lon="4.681379327588">
        <ele>16</ele>
        <time>2020-08-09T10:51:21Z</time>
      </trkpt>
      <trkpt lat="51.188616261809" lon="4.68051666244">
        <ele>17.6</ele>
        <time>2020-08-09T10:51:28Z</time>
      </trkpt>
      <trkpt lat="51.188793455175" lon="4.67966338502">
        <ele>17.2</ele>
        <time>2020-08-09T10:51:35Z</time>
      </trkpt>
      <trkpt lat="51.188965200306" lon="4.678828044866">
        <ele>15.8</ele>
        <time>2020-08-09T10:51:42Z</time>
      </trkpt>
      <trkpt lat="51.189144405328" lon="4.677909556264">
        <ele>13.4</ele>
        <time>2020-08-09T10:51:50Z</time>
      </trkpt>
      <trkpt lat="51.189328304214" lon="4.676976064061">
        <ele>12.8</ele>
        <time>2020-08-09T10:51:58Z</time>
      </trkpt>
      <trkpt lat="51.189509520892" lon="4.676117925139">
        <ele>14</ele>
        <time>2020-08-09T10:52:05Z</time>
      </trkpt>
      <trkpt lat="51.189679673462" lon="4.675249895575">
        <ele>13.6</ele>
        <time>2020-08-09T10:52:12Z</time>
      </trkpt>
      <trkpt lat="51.189843623426" lon="4.674405251512">
        <ele>13.6</ele>
        <time>2020-08-09T10:52:19Z</time>
      </trkpt>
      <trkpt lat="51.190005729372" lon="4.673577203611">
        <ele>13.2</ele>
        <time>2020-08-09T10:52:26Z</time>
      </trkpt>
      <trkpt lat="51.190186275498" lon="4.672654943154">
        <ele>13.4</ele>
        <time>2020-08-09T10:52:34Z</time>
      </trkpt>
      <trkpt lat="51.190366067253" lon="4.671743746805">
        <ele>14.8</ele>
        <time>2020-08-09T10:52:42Z</time>
      </trkpt>
      <trkpt lat="51.190550385234" lon="4.670832298999">
        <ele>14.2</ele>
        <time>2020-08-09T10:52:50Z</time>
      </trkpt>
      <trkpt lat="51.190730512265" lon="4.66990266247">
        <ele>13.6</ele>
        <time>2020-08-09T10:52:58Z</time>
      </trkpt>
      <trkpt lat="51.190910723115" lon="4.668982916583">
        <ele>13.6</ele>
        <time>2020-08-09T10:53:06Z</time>
      </trkpt>
      <trkpt lat="51.191091185422" lon="4.668074737718">
        <ele>14</ele>
        <time>2020-08-09T10:53:14Z</time>
      </trkpt>
      <trkpt lat="51.19127324029" lon="4.66718608868">
        <ele>15.6</ele>
        <time>2020-08-09T10:53:22Z</time>
      </trkpt>
      <trkpt lat="51.191446829439" lon="4.666301965868">
        <ele>16.4</ele>
        <time>2020-08-09T10:53:30Z</time>
      </trkpt>
      <trkpt lat="51.19163952932" lon="4.665403342369">
        <ele>14.8</ele>
        <time>2020-08-09T10:53:38Z</time>
      </trkpt>
      <trkpt lat="51.191828205889" lon="4.664528523466">
        <ele>14</ele>
        <time>2020-08-09T10:53:46Z</time>
      </trkpt>
      <trkpt lat="51.192026186367" lon="4.663684047041">
        <ele>13.2</ele>
        <time>2020-08-09T10:53:54Z</time>
      </trkpt>
      <trkpt lat="51.192222741922" lon="4.662837894236">
        <ele>13</ele>
        <time>2020-08-09T10:54:02Z</time>
      </trkpt>
      <trkpt lat="51.192430277766" lon="4.661971541052">
        <ele>13</ele>
        <time>2020-08-09T10:54:10Z</time>
      </trkpt>
      <trkpt lat="51.19263781361" lon="4.6611075348">
        <ele>14</ele>
        <time>2020-08-09T10:54:18Z</time>
      </trkpt>
      <trkpt lat="51.192859011951" lon="4.660273116655">
        <ele>13.4</ele>
        <time>2020-08-09T10:54:26Z</time>
      </trkpt>
      <trkpt lat="51.193096806454" lon="4.659438363234">
        <ele>13</ele>
        <time>2020-08-09T10:54:34Z</time>
      </trkpt>
      <trkpt lat="51.193290679801" lon="4.658542170486">
        <ele>13.2</ele>
        <time>2020-08-09T10:54:42Z</time>
      </trkpt>
      <trkpt lat="51.193376761914" lon="4.657672548361">
        <ele>11.8</ele>
        <time>2020-08-09T10:54:49Z</time>
      </trkpt>
      <trkpt lat="51.193580609722" lon="4.656854894016">
        <ele>10.8</ele>
        <time>2020-08-09T10:54:56Z</time>
      </trkpt>
      <trkpt lat="51.193927704201" lon="4.656149892407">
        <ele>10.8</ele>
        <time>2020-08-09T10:55:03Z</time>
      </trkpt>
      <trkpt lat="51.194294412326" lon="4.655406920791">
        <ele>11.2</ele>
        <time>2020-08-09T10:55:11Z</time>
      </trkpt>
      <trkpt lat="51.19453715215" lon="4.654588763532">
        <ele>11.6</ele>
        <time>2020-08-09T10:55:19Z</time>
      </trkpt>
      <trkpt lat="51.194763798726" lon="4.653749986799">
        <ele>12.4</ele>
        <time>2020-08-09T10:55:27Z</time>
      </trkpt>
      <trkpt lat="51.194992959872" lon="4.652914562826">
        <ele>12.4</ele>
        <time>2020-08-09T10:55:35Z</time>
      </trkpt>
      <trkpt lat="51.195214074394" lon="4.652034630964">
        <ele>12.2</ele>
        <time>2020-08-09T10:55:43Z</time>
      </trkpt>
      <trkpt lat="51.195420185315" lon="4.651161656079">
        <ele>12.6</ele>
        <time>2020-08-09T10:55:51Z</time>
      </trkpt>
      <trkpt lat="51.195610705902" lon="4.650271498299">
        <ele>12</ele>
        <time>2020-08-09T10:55:59Z</time>
      </trkpt>
      <trkpt lat="51.195788066906" lon="4.649350998041">
        <ele>10.4</ele>
        <time>2020-08-09T10:56:07Z</time>
      </trkpt>
      <trkpt lat="51.195945059893" lon="4.648525883805">
        <ele>9.4</ele>
        <time>2020-08-09T10:56:14Z</time>
      </trkpt>
      <trkpt lat="51.196110099504" lon="4.647602952796">
        <ele>10.4</ele>
        <time>2020-08-09T10:56:22Z</time>
      </trkpt>
      <trkpt lat="51.196263488274" lon="4.646657223019">
        <ele>11.8</ele>
        <time>2020-08-09T10:56:30Z</time>
      </trkpt>
      <trkpt lat="51.196391731344" lon="4.645703530437">
        <ele>12.4</ele>
        <time>2020-08-09T10:56:38Z</time>
      </trkpt>
      <trkpt lat="51.196507317745" lon="4.644857796727">
        <ele>13.2</ele>
        <time>2020-08-09T10:56:45Z</time>
      </trkpt>
      <trkpt lat="51.196599602464" lon="4.644119267518">
        <ele>13</ele>
        <time>2020-08-09T10:56:51Z</time>
      </trkpt>
      <trkpt lat="51.197065719923" lon="4.639415848152">
        <ele>10.6</ele>
        <time>2020-08-09T10:58:54Z</time>
      </trkpt>
      <trkpt lat="51.197156579719" lon="4.638527702028">
        <ele>10.2</ele>
        <time>2020-08-09T10:59:02Z</time>
      </trkpt>
      <trkpt lat="51.197246517506" lon="4.637577362206">
        <ele>10.4</ele>
        <time>2020-08-09T10:59:10Z</time>
      </trkpt>
      <trkpt lat="51.197347854677" lon="4.636610510041">
        <ele>10.2</ele>
        <time>2020-08-09T10:59:18Z</time>
      </trkpt>
      <trkpt lat="51.197447850744" lon="4.635746839065">
        <ele>9.8</ele>
        <time>2020-08-09T10:59:25Z</time>
      </trkpt>
      <trkpt lat="51.19755463615" lon="4.634879647691">
        <ele>9.4</ele>
        <time>2020-08-09T10:59:32Z</time>
      </trkpt>
      <trkpt lat="51.197669216723" lon="4.634021760226">
        <ele>9.4</ele>
        <time>2020-08-09T10:59:39Z</time>
      </trkpt>
      <trkpt lat="51.197794190852" lon="4.633159681811">
        <ele>9.2</ele>
        <time>2020-08-09T10:59:46Z</time>
      </trkpt>
      <trkpt lat="51.197926541053" lon="4.632300537061">
        <ele>9.8</ele>
        <time>2020-08-09T10:59:53Z</time>
      </trkpt>
      <trkpt lat="51.198068698077" lon="4.631468884943">
        <ele>10</ele>
        <time>2020-08-09T11:00:00Z</time>
      </trkpt>
      <trkpt lat="51.198236587534" lon="4.630533800179">
        <ele>10.2</ele>
        <time>2020-08-09T11:00:08Z</time>
      </trkpt>
      <trkpt lat="51.198420737877" lon="4.629629393169">
        <ele>10</ele>
        <time>2020-08-09T11:00:16Z</time>
      </trkpt>
      <trkpt lat="51.198611090826" lon="4.628724147969">
        <ele>10.2</ele>
        <time>2020-08-09T11:00:24Z</time>
      </trkpt>
      <trkpt lat="51.19881443572" lon="4.627799624399">
        <ele>10.2</ele>
        <time>2020-08-09T11:00:32Z</time>
      </trkpt>
      <trkpt lat="51.199031778387" lon="4.626903850746">
        <ele>10.6</ele>
        <time>2020-08-09T11:00:40Z</time>
      </trkpt>
      <trkpt lat="51.199253814918" lon="4.626015788441">
        <ele>10.8</ele>
        <time>2020-08-09T11:00:48Z</time>
      </trkpt>
      <trkpt lat="51.199459422925" lon="4.625221435778">
        <ele>11</ele>
        <time>2020-08-09T11:00:55Z</time>
      </trkpt>
      <trkpt lat="51.199689254623" lon="4.624440577974">
        <ele>11</ele>
        <time>2020-08-09T11:01:02Z</time>
      </trkpt>
      <trkpt lat="51.199979352182" lon="4.623577074636">
        <ele>10.8</ele>
        <time>2020-08-09T11:01:10Z</time>
      </trkpt>
      <trkpt lat="51.200301720056" lon="4.622773166607">
        <ele>10.8</ele>
        <time>2020-08-09T11:01:18Z</time>
      </trkpt>
      <trkpt lat="51.200645797051" lon="4.62201686777">
        <ele>11</ele>
        <time>2020-08-09T11:01:26Z</time>
      </trkpt>
      <trkpt lat="51.201040835998" lon="4.621289151212">
        <ele>11.2</ele>
        <time>2020-08-09T11:01:34Z</time>
      </trkpt>
      <trkpt lat="51.201464624862" lon="4.620585825983">
        <ele>11.6</ele>
        <time>2020-08-09T11:01:42Z</time>
      </trkpt>
      <trkpt lat="51.201907105363" lon="4.619945867918">
        <ele>11.2</ele>
        <time>2020-08-09T11:01:50Z</time>
      </trkpt>
      <trkpt lat="51.202360314696" lon="4.61936232004">
        <ele>11</ele>
        <time>2020-08-09T11:01:58Z</time>
      </trkpt>
      <trkpt lat="51.203170006236" lon="4.618517759796">
        <ele>11.4</ele>
        <time>2020-08-09T11:02:11Z</time>
      </trkpt>
      <trkpt lat="51.203697395384" lon="4.618067567947">
        <ele>11.6</ele>
        <time>2020-08-09T11:02:19Z</time>
      </trkpt>
      <trkpt lat="51.204242637979" lon="4.617657860675">
        <ele>11.6</ele>
        <time>2020-08-09T11:02:27Z</time>
      </trkpt>
      <trkpt lat="51.204798106492" lon="4.617315292422">
        <ele>11.4</ele>
        <time>2020-08-09T11:02:35Z</time>
      </trkpt>
      <trkpt lat="51.205380061809" lon="4.61703969555">
        <ele>11.2</ele>
        <time>2020-08-09T11:02:43Z</time>
      </trkpt>
      <trkpt lat="51.205962100945" lon="4.616820508865">
        <ele>11</ele>
        <time>2020-08-09T11:02:51Z</time>
      </trkpt>
      <trkpt lat="51.206538105113" lon="4.616656810358">
        <ele>10.6</ele>
        <time>2020-08-09T11:02:59Z</time>
      </trkpt>
      <trkpt lat="51.206971030248" lon="4.616591431538">
        <ele>11</ele>
        <time>2020-08-09T11:03:06Z</time>
      </trkpt>
      <trkpt lat="51.207052837592" lon="4.616510881479">
        <ele>11.2</ele>
        <time>2020-08-09T11:03:08Z</time>
      </trkpt>
      <trkpt lat="51.207078402387" lon="4.616361683659">
        <ele>11.2</ele>
        <time>2020-08-09T11:03:10Z</time>
      </trkpt>
      <trkpt lat="51.206634077868" lon="4.614681112709">
        <ele>14.8</ele>
        <time>2020-08-09T11:03:32Z</time>
      </trkpt>
      <trkpt lat="51.206566184478" lon="4.614701229269">
        <ele>15</ele>
        <time>2020-08-09T11:03:33Z</time>
      </trkpt>
      <trkpt lat="51.205955982158" lon="4.614744815149">
        <ele>14.4</ele>
        <time>2020-08-09T11:03:41Z</time>
      </trkpt>
      <trkpt lat="51.205417025988" lon="4.614539793875">
        <ele>13.8</ele>
        <time>2020-08-09T11:03:48Z</time>
      </trkpt>
      <trkpt lat="51.204927103933" lon="4.614132684992">
        <ele>13.6</ele>
        <time>2020-08-09T11:03:55Z</time>
      </trkpt>
      <trkpt lat="51.204512702797" lon="4.613534301151">
        <ele>14.4</ele>
        <time>2020-08-09T11:04:02Z</time>
      </trkpt>
      <trkpt lat="51.204207853094" lon="4.612788144413">
        <ele>14</ele>
        <time>2020-08-09T11:04:09Z</time>
      </trkpt>
      <trkpt lat="51.20403133028" lon="4.611961605254">
        <ele>13</ele>
        <time>2020-08-09T11:04:16Z</time>
      </trkpt>
      <trkpt lat="51.203997299766" lon="4.611090893482">
        <ele>12</ele>
        <time>2020-08-09T11:04:23Z</time>
      </trkpt>
      <trkpt lat="51.204093440159" lon="4.610241304098">
        <ele>12.2</ele>
        <time>2020-08-09T11:04:30Z</time>
      </trkpt>
      <trkpt lat="51.204312459206" lon="4.609456758258">
        <ele>10.8</ele>
        <time>2020-08-09T11:04:37Z</time>
      </trkpt>
      <trkpt lat="51.204570789364" lon="4.608685288182">
        <ele>9.8</ele>
        <time>2020-08-09T11:04:44Z</time>
      </trkpt>
      <trkpt lat="51.20482844897" lon="4.607916081219">
        <ele>9.4</ele>
        <time>2020-08-09T11:04:51Z</time>
      </trkpt>
      <trkpt lat="51.205087030585" lon="4.607151065206">
        <ele>7.4</ele>
        <time>2020-08-09T11:04:58Z</time>
      </trkpt>
      <trkpt lat="51.205403112034" lon="4.606387809392">
        <ele>8.4</ele>
        <time>2020-08-09T11:05:05Z</time>
      </trkpt>
      <trkpt lat="51.20566831535" lon="4.605570155047">
        <ele>7</ele>
        <time>2020-08-09T11:05:12Z</time>
      </trkpt>
      <trkpt lat="51.205905104025" lon="4.604778903687">
        <ele>9.6</ele>
        <time>2020-08-09T11:05:19Z</time>
      </trkpt>
      <trkpt lat="51.206142311795" lon="4.603931158321">
        <ele>10.6</ele>
        <time>2020-08-09T11:05:27Z</time>
      </trkpt>
      <trkpt lat="51.206406174007" lon="4.603074360503">
        <ele>10.2</ele>
        <time>2020-08-09T11:05:35Z</time>
      </trkpt>
      <trkpt lat="51.206649584383" lon="4.602307165196">
        <ele>9.6</ele>
        <time>2020-08-09T11:05:42Z</time>
      </trkpt>
      <trkpt lat="51.20688452904" lon="4.601525050107">
        <ele>9.6</ele>
        <time>2020-08-09T11:05:49Z</time>
      </trkpt>
      <trkpt lat="51.207122910276" lon="4.600751484556">
        <ele>10</ele>
        <time>2020-08-09T11:05:56Z</time>
      </trkpt>
      <trkpt lat="51.207393897103" lon="4.599875408368">
        <ele>15</ele>
        <time>2020-08-09T11:06:04Z</time>
      </trkpt>
      <trkpt lat="51.207697489521" lon="4.599108883613">
        <ele>15.8</ele>
        <time>2020-08-09T11:06:11Z</time>
      </trkpt>
      <trkpt lat="51.207977864076" lon="4.598315452959">
        <ele>13.4</ele>
        <time>2020-08-09T11:06:18Z</time>
      </trkpt>
      <trkpt lat="51.20824239684" lon="4.597504755591">
        <ele>11.6</ele>
        <time>2020-08-09T11:06:25Z</time>
      </trkpt>
      <trkpt lat="51.208504331215" lon="4.596689951092">
        <ele>10.4</ele>
        <time>2020-08-09T11:06:32Z</time>
      </trkpt>
      <trkpt lat="51.20877297111" lon="4.595878415534">
        <ele>10</ele>
        <time>2020-08-09T11:06:39Z</time>
      </trkpt>
      <trkpt lat="51.209033983476" lon="4.595075932428">
        <ele>10.4</ele>
        <time>2020-08-09T11:06:46Z</time>
      </trkpt>
      <trkpt lat="51.209282506811" lon="4.594262385214">
        <ele>13.8</ele>
        <time>2020-08-09T11:06:53Z</time>
      </trkpt>
      <trkpt lat="51.209542764806" lon="4.593443222127">
        <ele>12.4</ele>
        <time>2020-08-09T11:07:00Z</time>
      </trkpt>
      <trkpt lat="51.209807213751" lon="4.5926190299">
        <ele>12.2</ele>
        <time>2020-08-09T11:07:07Z</time>
      </trkpt>
      <trkpt lat="51.210083816451" lon="4.591794334759">
        <ele>11.8</ele>
        <time>2020-08-09T11:07:14Z</time>
      </trkpt>
      <trkpt lat="51.210364610101" lon="4.590975087853">
        <ele>11.6</ele>
        <time>2020-08-09T11:07:21Z</time>
      </trkpt>
      <trkpt lat="51.21064213481" lon="4.590156343861">
        <ele>9.6</ele>
        <time>2020-08-09T11:07:28Z</time>
      </trkpt>
      <trkpt lat="51.21090951742" lon="4.589341707">
        <ele>8.2</ele>
        <time>2020-08-09T11:07:35Z</time>
      </trkpt>
      <trkpt lat="51.211174217822" lon="4.588540816455">
        <ele>7.6</ele>
        <time>2020-08-09T11:07:42Z</time>
      </trkpt>
      <trkpt lat="51.21143590074" lon="4.587739255358">
        <ele>7.8</ele>
        <time>2020-08-09T11:07:49Z</time>
      </trkpt>
      <trkpt lat="51.211697835115" lon="4.586929312361">
        <ele>9.2</ele>
        <time>2020-08-09T11:07:56Z</time>
      </trkpt>
      <trkpt lat="51.211965301544" lon="4.586110903645">
        <ele>9.8</ele>
        <time>2020-08-09T11:08:03Z</time>
      </trkpt>
      <trkpt lat="51.212234192896" lon="4.585312443851">
        <ele>8.6</ele>
        <time>2020-08-09T11:08:10Z</time>
      </trkpt>
      <trkpt lat="51.212496546366" lon="4.584517755912">
        <ele>8</ele>
        <time>2020-08-09T11:08:17Z</time>
      </trkpt>
      <trkpt lat="51.21275185904" lon="4.583721056317">
        <ele>8.4</ele>
        <time>2020-08-09T11:08:24Z</time>
      </trkpt>
      <trkpt lat="51.213033574699" lon="4.582917148288">
        <ele>9.8</ele>
        <time>2020-08-09T11:08:31Z</time>
      </trkpt>
      <trkpt lat="51.21330757901" lon="4.582082059591">
        <ele>9.8</ele>
        <time>2020-08-09T11:08:38Z</time>
      </trkpt>
      <trkpt lat="51.213588540298" lon="4.58123305694">
        <ele>11</ele>
        <time>2020-08-09T11:08:45Z</time>
      </trkpt>
      <trkpt lat="51.21385826984" lon="4.58038816142">
        <ele>11.4</ele>
        <time>2020-08-09T11:08:52Z</time>
      </trkpt>
      <trkpt lat="51.214124981898" lon="4.579550474334">
        <ele>12.8</ele>
        <time>2020-08-09T11:08:59Z</time>
      </trkpt>
      <trkpt lat="51.214374091966" lon="4.578747655952">
        <ele>14</ele>
        <time>2020-08-09T11:09:06Z</time>
      </trkpt>
      <trkpt lat="51.214406697557" lon="4.578634081207">
        <ele>14</ele>
        <time>2020-08-09T11:09:07Z</time>
      </trkpt>
      <trkpt lat="51.215706981704" lon="4.574597777262">
        <ele>14.2</ele>
        <time>2020-08-09T11:10:03Z</time>
      </trkpt>
      <trkpt lat="51.215981572748" lon="4.573782637487">
        <ele>13.4</ele>
        <time>2020-08-09T11:10:10Z</time>
      </trkpt>
      <trkpt lat="51.216225234581" lon="4.572966491884">
        <ele>12</ele>
        <time>2020-08-09T11:10:17Z</time>
      </trkpt>
      <trkpt lat="51.216496640503" lon="4.572097875587">
        <ele>10.4</ele>
        <time>2020-08-09T11:10:24Z</time>
      </trkpt>
      <trkpt lat="51.216759496887" lon="4.571264379451">
        <ele>9.6</ele>
        <time>2020-08-09T11:10:31Z</time>
      </trkpt>
      <trkpt lat="51.21701237881" lon="4.570469607693">
        <ele>9.6</ele>
        <time>2020-08-09T11:10:38Z</time>
      </trkpt>
      <trkpt lat="51.217274983737" lon="4.569675506487">
        <ele>8.4</ele>
        <time>2020-08-09T11:10:45Z</time>
      </trkpt>
      <trkpt lat="51.217539097406" lon="4.568862294549">
        <ele>8</ele>
        <time>2020-08-09T11:10:52Z</time>
      </trkpt>
      <trkpt lat="51.217799020125" lon="4.568041874177">
        <ele>8.8</ele>
        <time>2020-08-09T11:10:59Z</time>
      </trkpt>
      <trkpt lat="51.218065396907" lon="4.567213071905">
        <ele>8.2</ele>
        <time>2020-08-09T11:11:06Z</time>
      </trkpt>
      <trkpt lat="51.218330348766" lon="4.566397261578">
        <ele>9</ele>
        <time>2020-08-09T11:11:13Z</time>
      </trkpt>
      <trkpt lat="51.218588595105" lon="4.565589414056">
        <ele>9.2</ele>
        <time>2020-08-09T11:11:20Z</time>
      </trkpt>
      <trkpt lat="51.218841812304" lon="4.564782153267">
        <ele>8</ele>
        <time>2020-08-09T11:11:27Z</time>
      </trkpt>
      <trkpt lat="51.219098968996" lon="4.563968606053">
        <ele>8.6</ele>
        <time>2020-08-09T11:11:34Z</time>
      </trkpt>
      <trkpt lat="51.219354868403" lon="4.563147179853">
        <ele>8</ele>
        <time>2020-08-09T11:11:41Z</time>
      </trkpt>
      <trkpt lat="51.219614204389" lon="4.562341595444">
        <ele>7.4</ele>
        <time>2020-08-09T11:11:48Z</time>
      </trkpt>
      <trkpt lat="51.219832217608" lon="4.561645143373">
        <ele>6.8</ele>
        <time>2020-08-09T11:11:54Z</time>
      </trkpt>
      <trkpt lat="51.220060624383" lon="4.560816341101">
        <ele>7.6</ele>
        <time>2020-08-09T11:12:01Z</time>
      </trkpt>
      <trkpt lat="51.220313254849" lon="4.560010002321">
        <ele>8.4</ele>
        <time>2020-08-09T11:12:08Z</time>
      </trkpt>
      <trkpt lat="51.220560017985" lon="4.559222606635">
        <ele>9.4</ele>
        <time>2020-08-09T11:12:15Z</time>
      </trkpt>
      <trkpt lat="51.220807619311" lon="4.558433618388">
        <ele>9.8</ele>
        <time>2020-08-09T11:12:22Z</time>
      </trkpt>
      <trkpt lat="51.221057819026" lon="4.557631722015">
        <ele>10</ele>
        <time>2020-08-09T11:12:29Z</time>
      </trkpt>
      <trkpt lat="51.221315981546" lon="4.556833513678">
        <ele>9.8</ele>
        <time>2020-08-09T11:12:36Z</time>
      </trkpt>
      <trkpt lat="51.221816129519" lon="4.555247825836">
        <ele>8.4</ele>
        <time>2020-08-09T11:12:50Z</time>
      </trkpt>
      <trkpt lat="51.222055684221" lon="4.554433440432">
        <ele>7.6</ele>
        <time>2020-08-09T11:12:57Z</time>
      </trkpt>
      <trkpt lat="51.222313260008" lon="4.553624000349">
        <ele>7.4</ele>
        <time>2020-08-09T11:13:04Z</time>
      </trkpt>
      <trkpt lat="51.222560023144" lon="4.55280919585">
        <ele>7.4</ele>
        <time>2020-08-09T11:13:11Z</time>
      </trkpt>
      <trkpt lat="51.222593299287" lon="4.552692603621">
        <ele>7.4</ele>
        <time>2020-08-09T11:13:12Z</time>
      </trkpt>
      <trkpt lat="51.222676112459" lon="4.552473333117">
        <ele>7.2</ele>
        <time>2020-08-09T11:13:14Z</time>
      </trkpt>
      <trkpt lat="51.222928156192" lon="4.551660456455">
        <ele>7.4</ele>
        <time>2020-08-09T11:13:21Z</time>
      </trkpt>
      <trkpt lat="51.22319654463" lon="4.550844227033">
        <ele>7.6</ele>
        <time>2020-08-09T11:13:28Z</time>
      </trkpt>
      <trkpt lat="51.223466106534" lon="4.54999203926">
        <ele>8.2</ele>
        <time>2020-08-09T11:13:35Z</time>
      </trkpt>
      <trkpt lat="51.223732231859" lon="4.549134403252">
        <ele>9</ele>
        <time>2020-08-09T11:13:42Z</time>
      </trkpt>
      <trkpt lat="51.224006319989" lon="4.548292273759">
        <ele>8.8</ele>
        <time>2020-08-09T11:13:49Z</time>
      </trkpt>
      <trkpt lat="51.224269344011" lon="4.547479816192">
        <ele>8.8</ele>
        <time>2020-08-09T11:13:56Z</time>
      </trkpt>
      <trkpt lat="51.224526584522" lon="4.546679009466">
        <ele>8.6</ele>
        <time>2020-08-09T11:14:03Z</time>
      </trkpt>
      <trkpt lat="51.22477318002" lon="4.545881890776">
        <ele>8.4</ele>
        <time>2020-08-09T11:14:10Z</time>
      </trkpt>
      <trkpt lat="51.225020110794" lon="4.545101452067">
        <ele>8.6</ele>
        <time>2020-08-09T11:14:17Z</time>
      </trkpt>
      <trkpt lat="51.225259665496" lon="4.544329143801">
        <ele>8.8</ele>
        <time>2020-08-09T11:14:24Z</time>
      </trkpt>
      <trkpt lat="51.225476924344" lon="4.543563792512">
        <ele>9.4</ele>
        <time>2020-08-09T11:14:31Z</time>
      </trkpt>
      <trkpt lat="51.225548589589" lon="4.543218206775">
        <ele>9.4</ele>
        <time>2020-08-09T11:14:34Z</time>
      </trkpt>
      <trkpt lat="51.225786300273" lon="4.542442378111">
        <ele>9.4</ele>
        <time>2020-08-09T11:14:41Z</time>
      </trkpt>
      <trkpt lat="51.226064663172" lon="4.541588849234">
        <ele>9.2</ele>
        <time>2020-08-09T11:14:49Z</time>
      </trkpt>
      <trkpt lat="51.22635568274" lon="4.540787539594">
        <ele>9.6</ele>
        <time>2020-08-09T11:14:57Z</time>
      </trkpt>
      <trkpt lat="51.226577719271" lon="4.53993375926">
        <ele>10.2</ele>
        <time>2020-08-09T11:15:05Z</time>
      </trkpt>
      <trkpt lat="51.226802102734" lon="4.539072686673">
        <ele>13</ele>
        <time>2020-08-09T11:15:13Z</time>
      </trkpt>
      <trkpt lat="51.227081220004" lon="4.538212787552">
        <ele>12.4</ele>
        <time>2020-08-09T11:15:21Z</time>
      </trkpt>
      <trkpt lat="51.227230920738" lon="4.537923863459">
        <ele>12.4</ele>
        <time>2020-08-09T11:15:24Z</time>
      </trkpt>
      <trkpt lat="51.227503081031" lon="4.537060779216">
        <ele>11.4</ele>
        <time>2020-08-09T11:15:32Z</time>
      </trkpt>
      <trkpt lat="51.22760207127" lon="4.536839497056">
        <ele>10</ele>
        <time>2020-08-09T11:15:34Z</time>
      </trkpt>
      <trkpt lat="51.227705923011" lon="4.536655933446">
        <ele>9</ele>
        <time>2020-08-09T11:15:36Z</time>
      </trkpt>
      <trkpt lat="51.227736265489" lon="4.53645107981">
        <ele>8.2</ele>
        <time>2020-08-09T11:15:38Z</time>
      </trkpt>
      <trkpt lat="51.227764177216" lon="4.536230971116">
        <ele>8</ele>
        <time>2020-08-09T11:15:40Z</time>
      </trkpt>
      <trkpt lat="51.228042540115" lon="4.535409293459">
        <ele>7</ele>
        <time>2020-08-09T11:15:48Z</time>
      </trkpt>
      <trkpt lat="51.228214704341" lon="4.535210307153">
        <ele>7</ele>
        <time>2020-08-09T11:15:53Z</time>
      </trkpt>
      <trkpt lat="51.228228366838" lon="4.535068233948">
        <ele>7.2</ele>
        <time>2020-08-09T11:15:55Z</time>
      </trkpt>
      <trkpt lat="51.228268264682" lon="4.534796911845">
        <ele>7.6</ele>
        <time>2020-08-09T11:15:58Z</time>
      </trkpt>
      <trkpt lat="51.22855090235" lon="4.533947825375">
        <ele>8.2</ele>
        <time>2020-08-09T11:16:06Z</time>
      </trkpt>
      <trkpt lat="51.228804119549" lon="4.53313352379">
        <ele>7.8</ele>
        <time>2020-08-09T11:16:13Z</time>
      </trkpt>
      <trkpt lat="51.229066808295" lon="4.532365071198">
        <ele>7.8</ele>
        <time>2020-08-09T11:16:20Z</time>
      </trkpt>
      <trkpt lat="51.229351038524" lon="4.531628553645">
        <ele>7.2</ele>
        <time>2020-08-09T11:16:27Z</time>
      </trkpt>
      <trkpt lat="51.229642058092" lon="4.530800421925">
        <ele>6.4</ele>
        <time>2020-08-09T11:16:35Z</time>
      </trkpt>
      <trkpt lat="51.229885971382" lon="4.530017049551">
        <ele>6.8</ele>
        <time>2020-08-09T11:16:42Z</time>
      </trkpt>
      <trkpt lat="51.230175901303" lon="4.529255637755">
        <ele>6.6</ele>
        <time>2020-08-09T11:16:49Z</time>
      </trkpt>
      <trkpt lat="51.230426939208" lon="4.528456088314">
        <ele>5.8</ele>
        <time>2020-08-09T11:16:56Z</time>
      </trkpt>
      <trkpt lat="51.230510171475" lon="4.528243104235">
        <ele>5.6</ele>
        <time>2020-08-09T11:16:58Z</time>
      </trkpt>
      <trkpt lat="51.230856595402" lon="4.527739268226">
        <ele>4.4</ele>
        <time>2020-08-09T11:17:04Z</time>
      </trkpt>
      <trkpt lat="51.231134874482" lon="4.526879201467">
        <ele>3.4</ele>
        <time>2020-08-09T11:17:12Z</time>
      </trkpt>
      <trkpt lat="51.231412399191" lon="4.526010668989">
        <ele>3.6</ele>
        <time>2020-08-09T11:17:20Z</time>
      </trkpt>
      <trkpt lat="51.231681709638" lon="4.525141885054">
        <ele>4.2</ele>
        <time>2020-08-09T11:17:28Z</time>
      </trkpt>
      <trkpt lat="51.231955211035" lon="4.524288859091">
        <ele>4.2</ele>
        <time>2020-08-09T11:17:36Z</time>
      </trkpt>
      <trkpt lat="51.232231897554" lon="4.523423679373">
        <ele>4.6</ele>
        <time>2020-08-09T11:17:44Z</time>
      </trkpt>
      <trkpt lat="51.232493412834" lon="4.522588506857">
        <ele>4.4</ele>
        <time>2020-08-09T11:17:52Z</time>
      </trkpt>
      <trkpt lat="51.23277370357" lon="4.52172994884">
        <ele>4.2</ele>
        <time>2020-08-09T11:18:00Z</time>
      </trkpt>
      <trkpt lat="51.233022729819" lon="4.520940457679">
        <ele>4.4</ele>
        <time>2020-08-09T11:18:07Z</time>
      </trkpt>
      <trkpt lat="51.233277120484" lon="4.520123892981">
        <ele>4.6</ele>
        <time>2020-08-09T11:18:14Z</time>
      </trkpt>
      <trkpt lat="51.233516842824" lon="4.519329037404">
        <ele>5</ele>
        <time>2020-08-09T11:18:21Z</time>
      </trkpt>
      <trkpt lat="51.233700825529" lon="4.518447848257">
        <ele>6.2</ele>
        <time>2020-08-09T11:18:28Z</time>
      </trkpt>
      <trkpt lat="51.233872654479" lon="4.517562300522">
        <ele>7.2</ele>
        <time>2020-08-09T11:18:35Z</time>
      </trkpt>
      <trkpt lat="51.234025875611" lon="4.516967856174">
        <ele>7</ele>
        <time>2020-08-09T11:18:40Z</time>
      </trkpt>
      <trkpt lat="51.234151436473" lon="4.516517412868">
        <ele>6.8</ele>
        <time>2020-08-09T11:18:44Z</time>
      </trkpt>
      <trkpt lat="51.234478917306" lon="4.515705290577">
        <ele>6.8</ele>
        <time>2020-08-09T11:18:52Z</time>
      </trkpt>
      <trkpt lat="51.234720483664" lon="4.514908423344">
        <ele>7.2</ele>
        <time>2020-08-09T11:18:59Z</time>
      </trkpt>
      <trkpt lat="51.234949393353" lon="4.514122368762">
        <ele>7.2</ele>
        <time>2020-08-09T11:19:06Z</time>
      </trkpt>
      <trkpt lat="51.23522038018" lon="4.513285519866">
        <ele>6.8</ele>
        <time>2020-08-09T11:19:14Z</time>
      </trkpt>
      <trkpt lat="51.235477872148" lon="4.512484126407">
        <ele>6.6</ele>
        <time>2020-08-09T11:19:22Z</time>
      </trkpt>
      <trkpt lat="51.235736537582" lon="4.511665550053">
        <ele>7.8</ele>
        <time>2020-08-09T11:19:30Z</time>
      </trkpt>
      <trkpt lat="51.235995454473" lon="4.51082761151">
        <ele>7.4</ele>
        <time>2020-08-09T11:19:38Z</time>
      </trkpt>
      <trkpt lat="51.236274990838" lon="4.509970394597">
        <ele>6.4</ele>
        <time>2020-08-09T11:19:46Z</time>
      </trkpt>
      <trkpt lat="51.236550084796" lon="4.509088702536">
        <ele>6.4</ele>
        <time>2020-08-09T11:19:54Z</time>
      </trkpt>
      <trkpt lat="51.236775641725" lon="4.508281274109">
        <ele>6</ele>
        <time>2020-08-09T11:20:01Z</time>
      </trkpt>
      <trkpt lat="51.236995247505" lon="4.507492285862">
        <ele>5.6</ele>
        <time>2020-08-09T11:20:08Z</time>
      </trkpt>
      <trkpt lat="51.237275035327" lon="4.506635990958">
        <ele>5.2</ele>
        <time>2020-08-09T11:20:16Z</time>
      </trkpt>
      <trkpt lat="51.237480643334" lon="4.505812301645">
        <ele>5</ele>
        <time>2020-08-09T11:20:23Z</time>
      </trkpt>
      <trkpt lat="51.237724137529" lon="4.504930861041">
        <ele>4.8</ele>
        <time>2020-08-09T11:20:30Z</time>
      </trkpt>
      <trkpt lat="51.237946760793" lon="4.503997787933">
        <ele>4.6</ele>
        <time>2020-08-09T11:20:37Z</time>
      </trkpt>
      <trkpt lat="51.238117751553" lon="4.50318164233">
        <ele>4.8</ele>
        <time>2020-08-09T11:20:43Z</time>
      </trkpt>
      <trkpt lat="51.238276923834" lon="4.502359545578">
        <ele>5.2</ele>
        <time>2020-08-09T11:20:49Z</time>
      </trkpt>
      <trkpt lat="51.2384373534" lon="4.50155387735">
        <ele>5.4</ele>
        <time>2020-08-09T11:20:55Z</time>
      </trkpt>
      <trkpt lat="51.238529219024" lon="4.501326141127">
        <ele>5.4</ele>
        <time>2020-08-09T11:20:57Z</time>
      </trkpt>
      <trkpt lat="51.238654863705" lon="4.501152719616">
        <ele>5.2</ele>
        <time>2020-08-09T11:20:59Z</time>
      </trkpt>
      <trkpt lat="51.238801044041" lon="4.501045431296">
        <ele>5</ele>
        <time>2020-08-09T11:21:01Z</time>
      </trkpt>
      <trkpt lat="51.238956779743" lon="4.501027577849">
        <ele>5</ele>
        <time>2020-08-09T11:21:03Z</time>
      </trkpt>
      <trkpt lat="51.239551559367" lon="4.501259002108">
        <ele>5</ele>
        <time>2020-08-09T11:21:11Z</time>
      </trkpt>
      <trkpt lat="51.240091856641" lon="4.501556978653">
        <ele>4.6</ele>
        <time>2020-08-09T11:21:19Z</time>
      </trkpt>
      <trkpt lat="51.240210209069" lon="4.501629901183">
        <ele>4.6</ele>
        <time>2020-08-09T11:21:21Z</time>
      </trkpt>
      <trkpt lat="51.239679970075" lon="4.499534258545">
        <ele>7.8</ele>
        <time>2020-08-09T11:22:17Z</time>
      </trkpt>
      <trkpt lat="51.239652896538" lon="4.499277604767">
        <ele>8.2</ele>
        <time>2020-08-09T11:22:20Z</time>
      </trkpt>
      <trkpt lat="51.239660356429" lon="4.499079791927">
        <ele>8.4</ele>
        <time>2020-08-09T11:22:22Z</time>
      </trkpt>
      <trkpt lat="51.239742582868" lon="4.498132050494">
        <ele>9.4</ele>
        <time>2020-08-09T11:22:30Z</time>
      </trkpt>
      <trkpt lat="51.239743085782" lon="4.497180704844">
        <ele>9</ele>
        <time>2020-08-09T11:22:37Z</time>
      </trkpt>
      <trkpt lat="51.239725735249" lon="4.496177810509">
        <ele>7.8</ele>
        <time>2020-08-09T11:22:44Z</time>
      </trkpt>
      <trkpt lat="51.239748953112" lon="4.495312630791">
        <ele>6.2</ele>
        <time>2020-08-09T11:22:50Z</time>
      </trkpt>
      <trkpt lat="51.23987233468" lon="4.494377713665">
        <ele>4.6</ele>
        <time>2020-08-09T11:22:57Z</time>
      </trkpt>
      <trkpt lat="51.240041984336" lon="4.493497530346">
        <ele>3.6</ele>
        <time>2020-08-09T11:23:04Z</time>
      </trkpt>
      <trkpt lat="51.240215741123" lon="4.492562026487">
        <ele>3.4</ele>
        <time>2020-08-09T11:23:12Z</time>
      </trkpt>
      <trkpt lat="51.240331578981" lon="4.491830202798">
        <ele>2.8</ele>
        <time>2020-08-09T11:23:19Z</time>
      </trkpt>
      <trkpt lat="51.24042554008" lon="4.491743198676">
        <ele>2.6</ele>
        <time>2020-08-09T11:23:21Z</time>
      </trkpt>
      <trkpt lat="51.240975560358" lon="4.491741354658">
        <ele>2.4</ele>
        <time>2020-08-09T11:23:30Z</time>
      </trkpt>
      <trkpt lat="51.24130815415" lon="4.491760716847">
        <ele>2.4</ele>
        <time>2020-08-09T11:23:35Z</time>
      </trkpt>
      <trkpt lat="51.24150848156" lon="4.49186607733">
        <ele>1</ele>
        <time>2020-08-09T11:23:38Z</time>
      </trkpt>
      <trkpt lat="51.241617781536" lon="4.491996499694">
        <ele>0.6</ele>
        <time>2020-08-09T11:23:40Z</time>
      </trkpt>
      <trkpt lat="51.241689446781" lon="4.492170675576">
        <ele>0.2</ele>
        <time>2020-08-09T11:23:42Z</time>
      </trkpt>
      <trkpt lat="51.241779552206" lon="4.492524643213">
        <ele>0</ele>
        <time>2020-08-09T11:23:46Z</time>
      </trkpt>
      <trkpt lat="51.24201977746" lon="4.493191758634">
        <ele>0.2</ele>
        <time>2020-08-09T11:24:51Z</time>
      </trkpt>
      <trkpt lat="51.241888852182" lon="4.492342001612">
        <ele>2</ele>
        <time>2020-08-09T11:25:01Z</time>
      </trkpt>
      <trkpt lat="51.241638903924" lon="4.49167916096">
        <ele>3</ele>
        <time>2020-08-09T11:25:10Z</time>
      </trkpt>
      <trkpt lat="51.24117152918" lon="4.491232489509">
        <ele>4.2</ele>
        <time>2020-08-09T11:25:21Z</time>
      </trkpt>
      <trkpt lat="51.240628046784" lon="4.490977260654">
        <ele>6</ele>
        <time>2020-08-09T11:25:33Z</time>
      </trkpt>
      <trkpt lat="51.240073667918" lon="4.49070937513">
        <ele>7</ele>
        <time>2020-08-09T11:25:45Z</time>
      </trkpt>
      <trkpt lat="51.239506380926" lon="4.490453224266">
        <ele>7.2</ele>
        <time>2020-08-09T11:25:55Z</time>
      </trkpt>
      <trkpt lat="51.23896289853" lon="4.490199336515">
        <ele>5.6</ele>
        <time>2020-08-09T11:26:03Z</time>
      </trkpt>
      <trkpt lat="51.238428300948" lon="4.490046199202">
        <ele>4.4</ele>
        <time>2020-08-09T11:26:10Z</time>
      </trkpt>
      <trkpt lat="51.237857912653" lon="4.490093640756">
        <ele>2.6</ele>
        <time>2020-08-09T11:26:17Z</time>
      </trkpt>
      <trkpt lat="51.237299007561" lon="4.490384492686">
        <ele>0.6</ele>
        <time>2020-08-09T11:26:24Z</time>
      </trkpt>
      <trkpt lat="51.236857616707" lon="4.490494966128">
        <ele>0</ele>
        <time>2020-08-09T11:26:30Z</time>
      </trkpt>
      <trkpt lat="51.236410274704" lon="4.490357670606">
        <ele>0</ele>
        <time>2020-08-09T11:26:37Z</time>
      </trkpt>
      <trkpt lat="51.236338274183" lon="4.490247364802">
        <ele>0</ele>
        <time>2020-08-09T11:26:39Z</time>
      </trkpt>
      <trkpt lat="51.236267195671" lon="4.490146362907">
        <ele>0</ele>
        <time>2020-08-09T11:26:41Z</time>
      </trkpt>
      <trkpt lat="51.23608455407" lon="4.489906640567">
        <ele>0</ele>
        <time>2020-08-09T11:26:46Z</time>
      </trkpt>
      <trkpt lat="51.236069047555" lon="4.489770183235">
        <ele>0</ele>
        <time>2020-08-09T11:26:48Z</time>
      </trkpt>
      <trkpt lat="51.236018504698" lon="4.489691309556">
        <ele>0</ele>
        <time>2020-08-09T11:26:50Z</time>
      </trkpt>
      <trkpt lat="51.235938960467" lon="4.489676222136">
        <ele>0</ele>
        <time>2020-08-09T11:26:52Z</time>
      </trkpt>
      <trkpt lat="51.235877353502" lon="4.489577650992">
        <ele>0</ele>
        <time>2020-08-09T11:26:54Z</time>
      </trkpt>
      <trkpt lat="51.235497150518" lon="4.488877175609">
        <ele>0</ele>
        <time>2020-08-09T11:27:04Z</time>
      </trkpt>
      <trkpt lat="51.235094735499" lon="4.488165719937">
        <ele>0</ele>
        <time>2020-08-09T11:27:13Z</time>
      </trkpt>
      <trkpt lat="51.234716963266" lon="4.487491396082">
        <ele>0</ele>
        <time>2020-08-09T11:27:21Z</time>
      </trkpt>
      <trkpt lat="51.234374562651" lon="4.486778431668">
        <ele>0</ele>
        <time>2020-08-09T11:27:29Z</time>
      </trkpt>
      <trkpt lat="51.234028893095" lon="4.486109891324">
        <ele>0.4</ele>
        <time>2020-08-09T11:27:37Z</time>
      </trkpt>
      <trkpt lat="51.233652210509" lon="4.48540195605">
        <ele>1</ele>
        <time>2020-08-09T11:27:45Z</time>
      </trkpt>
      <trkpt lat="51.23326488291" lon="4.484706425988">
        <ele>1.4</ele>
        <time>2020-08-09T11:27:53Z</time>
      </trkpt>
      <trkpt lat="51.23287428637" lon="4.484025396613">
        <ele>2.2</ele>
        <time>2020-08-09T11:28:01Z</time>
      </trkpt>
      <trkpt lat="51.232478241595" lon="4.483341936487">
        <ele>2.8</ele>
        <time>2020-08-09T11:28:10Z</time>
      </trkpt>
      <trkpt lat="51.232323427902" lon="4.483219141652">
        <ele>2.8</ele>
        <time>2020-08-09T11:28:13Z</time>
      </trkpt>
      <trkpt lat="51.232244889499" lon="4.483088467831">
        <ele>2.8</ele>
        <time>2020-08-09T11:28:15Z</time>
      </trkpt>
      <trkpt lat="51.232187222027" lon="4.482922673849">
        <ele>2.8</ele>
        <time>2020-08-09T11:28:17Z</time>
      </trkpt>
      <trkpt lat="51.231957557967" lon="4.482097727251">
        <ele>3.4</ele>
        <time>2020-08-09T11:28:26Z</time>
      </trkpt>
      <trkpt lat="51.231888826387" lon="4.481791620263">
        <ele>3.4</ele>
        <time>2020-08-09T11:28:29Z</time>
      </trkpt>
      <trkpt lat="51.231861166117" lon="4.481571176293">
        <ele>3</ele>
        <time>2020-08-09T11:28:31Z</time>
      </trkpt>
      <trkpt lat="51.231873236053" lon="4.480699039598">
        <ele>3.6</ele>
        <time>2020-08-09T11:28:39Z</time>
      </trkpt>
      <trkpt lat="51.231871224397" lon="4.479794967864">
        <ele>4.2</ele>
        <time>2020-08-09T11:28:47Z</time>
      </trkpt>
      <trkpt lat="51.231884300161" lon="4.478891482863">
        <ele>5.8</ele>
        <time>2020-08-09T11:28:57Z</time>
      </trkpt>
      <trkpt lat="51.231946493859" lon="4.478790983882">
        <ele>6</ele>
        <time>2020-08-09T11:28:59Z</time>
      </trkpt>
      <trkpt lat="51.232018242923" lon="4.478685791037">
        <ele>6.4</ele>
        <time>2020-08-09T11:29:01Z</time>
      </trkpt>
      <trkpt lat="51.232067696133" lon="4.478487307645">
        <ele>7</ele>
        <time>2020-08-09T11:29:04Z</time>
      </trkpt>
      <trkpt lat="51.232039952044" lon="4.478337858368">
        <ele>7.4</ele>
        <time>2020-08-09T11:29:06Z</time>
      </trkpt>
      <trkpt lat="51.231972980663" lon="4.478188995824">
        <ele>7.8</ele>
        <time>2020-08-09T11:29:08Z</time>
      </trkpt>
      <trkpt lat="51.23164549983" lon="4.477484580948">
        <ele>9.8</ele>
        <time>2020-08-09T11:29:17Z</time>
      </trkpt>
      <trkpt lat="51.231315923522" lon="4.47680296484">
        <ele>10.4</ele>
        <time>2020-08-09T11:29:25Z</time>
      </trkpt>
      <trkpt lat="51.230985509024" lon="4.475995117318">
        <ele>11.2</ele>
        <time>2020-08-09T11:29:34Z</time>
      </trkpt>
      <trkpt lat="51.230632044301" lon="4.475290534804">
        <ele>12.4</ele>
        <time>2020-08-09T11:29:42Z</time>
      </trkpt>
      <trkpt lat="51.230307078038" lon="4.474547479369">
        <ele>12.4</ele>
        <time>2020-08-09T11:29:50Z</time>
      </trkpt>
      <trkpt lat="51.229988314381" lon="4.473809453074">
        <ele>12.8</ele>
        <time>2020-08-09T11:29:58Z</time>
      </trkpt>
      <trkpt lat="51.229649434164" lon="4.473057429006">
        <ele>13.4</ele>
        <time>2020-08-09T11:30:06Z</time>
      </trkpt>
      <trkpt lat="51.229322623883" lon="4.47234044128">
        <ele>13.2</ele>
        <time>2020-08-09T11:30:14Z</time>
      </trkpt>
      <trkpt lat="51.228975780861" lon="4.471553967603">
        <ele>13.8</ele>
        <time>2020-08-09T11:30:23Z</time>
      </trkpt>
      <trkpt lat="51.228666907846" lon="4.470818958792">
        <ele>13.8</ele>
        <time>2020-08-09T11:30:31Z</time>
      </trkpt>
      <trkpt lat="51.228590800194" lon="4.470645537281">
        <ele>13.6</ele>
        <time>2020-08-09T11:30:33Z</time>
      </trkpt>
      <trkpt lat="51.228045725237" lon="4.469194965667">
        <ele>10.4</ele>
        <time>2020-08-09T11:31:12Z</time>
      </trkpt>
      <trkpt lat="51.227979424408" lon="4.468962954675">
        <ele>9.8</ele>
        <time>2020-08-09T11:31:15Z</time>
      </trkpt>
      <trkpt lat="51.227750347081" lon="4.468078580406">
        <ele>8.6</ele>
        <time>2020-08-09T11:31:25Z</time>
      </trkpt>
      <trkpt lat="51.22752076684" lon="4.467188841721">
        <ele>7.8</ele>
        <time>2020-08-09T11:31:34Z</time>
      </trkpt>
      <trkpt lat="51.227495034407" lon="4.467093539518">
        <ele>7.8</ele>
        <time>2020-08-09T11:31:35Z</time>
      </trkpt>
      <trkpt lat="51.227414735805" lon="4.466790030919">
        <ele>7.6</ele>
        <time>2020-08-09T11:31:40Z</time>
      </trkpt>
      <trkpt lat="51.227247097805" lon="4.465963324122">
        <ele>6</ele>
        <time>2020-08-09T11:31:53Z</time>
      </trkpt>
      <trkpt lat="51.227116172527" lon="4.465114237652">
        <ele>4.8</ele>
        <time>2020-08-09T11:32:02Z</time>
      </trkpt>
      <trkpt lat="51.226976446254" lon="4.464183846752">
        <ele>4</ele>
        <time>2020-08-09T11:32:11Z</time>
      </trkpt>
      <trkpt lat="51.226854489609" lon="4.463316823016">
        <ele>4.4</ele>
        <time>2020-08-09T11:32:19Z</time>
      </trkpt>
      <trkpt lat="51.22673119186" lon="4.462456085705">
        <ele>4.4</ele>
        <time>2020-08-09T11:32:27Z</time>
      </trkpt>
      <trkpt lat="51.226570678475" lon="4.461621332284">
        <ele>5</ele>
        <time>2020-08-09T11:32:35Z</time>
      </trkpt>
      <trkpt lat="51.226374374377" lon="4.460716673817">
        <ele>5</ele>
        <time>2020-08-09T11:32:44Z</time>
      </trkpt>
      <trkpt lat="51.226258201243" lon="4.460242342096">
        <ele>4.8</ele>
        <time>2020-08-09T11:32:49Z</time>
      </trkpt>
      <trkpt lat="51.226372278902" lon="4.459544129826">
        <ele>6</ele>
        <time>2020-08-09T11:33:03Z</time>
      </trkpt>
      <trkpt lat="51.22690972633" lon="4.459172392561">
        <ele>9</ele>
        <time>2020-08-09T11:33:15Z</time>
      </trkpt>
      <trkpt lat="51.22743108051" lon="4.458903165933">
        <ele>10.6</ele>
        <time>2020-08-09T11:33:25Z</time>
      </trkpt>
      <trkpt lat="51.227932569587" lon="4.458565710639">
        <ele>12</ele>
        <time>2020-08-09T11:33:34Z</time>
      </trkpt>
      <trkpt lat="51.228478063639" lon="4.45829237688">
        <ele>12.2</ele>
        <time>2020-08-09T11:33:44Z</time>
      </trkpt>
      <trkpt lat="51.229047865201" lon="4.458121637577">
        <ele>13.4</ele>
        <time>2020-08-09T11:33:55Z</time>
      </trkpt>
      <trkpt lat="51.229397725707" lon="4.458047876857">
        <ele>14.4</ele>
        <time>2020-08-09T11:34:01Z</time>
      </trkpt>
    </trkseg>
  </trk>
</gpx>